Data for 10/23/2008

Time Sea-Level Adjusted Pressure Absolute Pressure Temperature Relative Humidity Dew Point Precipitation   
(mb) (inHg) (mb) (inHg) (C) (F) (%) (C) (F) (mm) (in)
00:01 1029 30.39 858 25.34 -1.1 30 77 -4.6 23.6 0
00:02 1029 30.39 858 25.34 -1.3 29.7 78 -4.7 23.6 0
00:03 1029 30.39 858 25.34 -1.4 29.5 78 -4.7 23.6 0
00:04 1029 30.39 858 25.34 -1.5 29.4 79 -4.7 23.5 0
00:05 1029 30.39 858 25.34 -1.5 29.3 78 -4.8 23.4 0
00:06 1029 30.39 858 25.34 -1.4 29.4 78 -4.8 23.3 0
00:07 1029 30.39 858 25.34 -1.4 29.6 77 -4.8 23.3 0
00:08 1029 30.39 858 25.34 -1.3 29.7 77 -4.8 23.4 0
00:09 1029 30.39 858 25.34 -1.3 29.6 78 -4.7 23.5 0
00:10 1029 30.39 858 25.34 -1.4 29.4 78 -4.8 23.4 0
00:11 1029 30.39 858 25.34 -1.5 29.3 78 -4.9 23.2 0
00:12 1029 30.39 858 25.34 -1.6 29.2 78 -4.9 23.2 0
00:13 1029 30.39 858 25.34 -1.7 28.9 79 -4.9 23.1 0
00:14 1029 30.39 858 25.34 -1.8 28.8 79 -5 23 0
00:15 1029 30.39 858 25.34 -1.9 28.6 79 -5 22.9 0
00:16 1029 30.39 858 25.34 -1.9 28.5 79 -5.1 22.9 0
00:17 1029 30.39 858 25.34 -2.1 28.3 80 -5.1 22.8 0
00:18 1029 30.39 858 25.34 -2.2 28 81 -5.1 22.8 0
00:19 1029 30.39 858 25.34 -2.3 27.9 81 -5.1 22.8 0
00:20 1029 30.39 858 25.34 -2.3 27.8 81 -5.2 22.6 0
00:21 1029 30.39 858 25.34 -2.4 27.7 81 -5.2 22.6 0
00:22 1029 30.39 858 25.34 -2.4 27.7 81 -5.3 22.5 0
00:23 1029 30.39 858 25.34 -2.3 27.8 81 -5.2 22.7 0
00:24 1029 30.39 858 25.34 -2.1 28.2 80 -5.1 22.8 0
00:25 1029 30.39 858 25.34 -1.9 28.6 78 -5.2 22.6 0
00:26 1029 30.39 858 25.34 -1.8 28.8 77 -5.2 22.6 0
00:27 1029 30.39 858 25.34 -1.6 29.1 77 -5.2 22.7 0
00:28 1029 30.39 858 25.34 -1.3 29.6 75 -5.2 22.7 0
00:29 1029 30.39 858 25.34 -1.1 30.1 74 -5.1 22.8 0
00:30 1029 30.39 858 25.34 -0.9 30.5 73 -5.1 22.8 0
00:31 1029 30.39 858 25.34 -0.8 30.6 73 -5 23 0
00:32 1029 30.39 858 25.34 -0.7 30.7 72 -5.1 22.9 0
00:33 1029 30.39 858 25.34 -0.8 30.6 73 -5 23 0
00:34 1029 30.39 858 25.34 -0.8 30.5 74 -5 23.1 0
00:35 1029 30.39 858 25.34 -0.9 30.3 73 -5.2 22.6 0
00:36 1029 30.39 858 25.34 -1.1 30 74 -5.2 22.7 0
00:37 1029 30.39 858 25.34 -1.2 29.8 75 -5.1 22.8 0
00:38 1029 30.39 858 25.34 -1.2 29.8 75 -5.1 22.8 0
00:39 1029 30.39 858 25.34 -1.2 29.8 75 -5.2 22.7 0
00:40 1029 30.39 858 25.34 -1.2 29.9 74 -5.2 22.6 0
00:41 1029 30.39 858 25.34 -1.1 30 74 -5.1 22.8 0
00:42 1029 30.39 858 25.34 -1 30.1 74 -5 23 0
00:43 1029 30.39 858 25.34 -1 30.2 74 -5.1 22.9 0
00:44 1029 30.39 858 25.34 -0.9 30.3 73 -5.2 22.7 0
00:45 1029 30.39 858 25.34 -1 30.2 72 -5.4 22.2 0
00:46 1029 30.39 858 25.34 -1.2 29.9 75 -5.1 22.9 0
00:47 1029 30.39 858 25.34 -1.3 29.7 73 -5.5 22.1 0
00:48 1029 30.39 858 25.34 -1.7 29 76 -5.3 22.4 0
00:49 1029 30.39 858 25.34 -1.8 28.7 77 -5.3 22.5 0
00:50 1029 30.39 858 25.34 -1.7 28.9 78 -5 23 0
00:51 1029 30.39 858 25.34 -1.5 29.3 76 -5.1 22.8 0
00:52 1029 30.39 858 25.34 -1.2 29.9 74 -5.3 22.5 0
00:53 1029 30.39 858 25.34 -1.2 29.8 74 -5.2 22.6 0
00:54 1029 30.39 858 25.34 -1.3 29.7 75 -5.2 22.6 0
00:55 1029 30.39 858 25.34 -1.4 29.6 75 -5.3 22.5 0
00:56 1028 30.36 858 25.34 -1.5 29.3 78 -4.9 23.2 0
00:57 1028 30.36 858 25.34 -1.5 29.4 78 -4.9 23.2 0
00:58 1028 30.36 858 25.34 -1.4 29.5 77 -5 23.1 0
00:59 1028 30.36 858 25.34 -1.5 29.4 76 -5.1 22.8 0
01:00 1028 30.36 858 25.34 -1.6 29.2 76 -5.2 22.6 0
01:01 1028 30.36 858 25.34 -1.8 28.7 77 -5.3 22.4 0
01:02 1028 30.36 858 25.34 -2.1 28.3 79 -5.3 22.5 0
01:03 1028 30.36 858 25.34 -2.2 28.1 80 -5.2 22.6 0
01:04 1028 30.36 858 25.34 -2.3 27.9 81 -5.2 22.7 0
01:05 1028 30.36 858 25.34 -2.2 28 81 -5 22.9 0
01:06 1028 30.36 858 25.34 -2.2 28 80 -5.2 22.6 0
01:07 1028 30.36 858 25.34 -2.4 27.8 80 -5.3 22.4 0
01:08 1028 30.36 858 25.34 -2.6 27.3 80 -5.6 21.9 0
01:09 1028 30.36 857 25.31 -2.9 26.7 81 -5.7 21.7 0
01:10 1028 30.36 857 25.31 -3.2 26.2 83 -5.7 21.7 0
01:11 1028 30.36 857 25.31 -3.3 26 83 -5.7 21.7 0
01:12 1028 30.36 857 25.31 -3.5 25.8 84 -5.8 21.6 0
01:13 1028 30.36 857 25.31 -3.6 25.6 84 -5.9 21.4 0
01:14 1028 30.36 857 25.31 -3.7 25.4 84 -6 21.3 0
01:15 1028 30.36 857 25.31 -3.9 24.9 86 -6 21.2 0
01:16 1028 30.36 857 25.31 -4 24.8 88 -5.8 21.6 0
01:17 1028 30.36 857 25.31 -3.9 24.9 88 -5.7 21.8 0
01:18 1028 30.36 857 25.31 -3.8 25.1 87 -5.7 21.7 0
01:19 1028 30.36 857 25.31 -3.8 25.1 86 -5.8 21.6 0
01:20 1028 30.36 857 25.31 -3.8 25.1 87 -5.7 21.8 0
01:21 1028 30.36 857 25.31 -3.8 25.1 87 -5.6 21.9 0
01:22 1028 30.36 857 25.31 -3.7 25.3 87 -5.6 21.9 0
01:23 1028 30.36 857 25.31 -3.7 25.4 88 -5.3 22.5 0
01:24 1028 30.36 857 25.31 -3.5 25.6 87 -5.3 22.4 0
01:25 1028 30.36 857 25.31 -3.4 25.9 87 -5.3 22.5 0
01:26 1028 30.36 857 25.31 -3.3 26 87 -5.2 22.6 0
01:27 1028 30.36 857 25.31 -3.2 26.3 86 -5.3 22.5 0
01:28 1028 30.36 857 25.31 -3.2 26.2 84 -5.6 21.9 0
01:29 1028 30.36 857 25.31 -3.4 25.9 84 -5.7 21.8 0
01:30 1028 30.36 857 25.31 -3.6 25.6 87 -5.5 22.1 0
01:31 1028 30.36 857 25.31 -3.5 25.7 88 -5.2 22.7 0
01:32 1028 30.36 857 25.31 -3.3 26 88 -5.1 22.8 0
01:33 1028 30.36 857 25.31 -3.1 26.4 86 -5.2 22.6 0
01:34 1028 30.36 857 25.31 -3.1 26.5 84 -5.4 22.3 0
01:35 1028 30.36 857 25.31 -3.1 26.4 85 -5.3 22.5 0
01:36 1028 30.36 857 25.31 -3.1 26.4 86 -5.2 22.7 0
01:37 1028 30.36 857 25.31 -3 26.7 85 -5.1 22.8 0
01:38 1028 30.36 857 25.31 -2.8 26.9 85 -5.1 22.8 0
01:39 1028 30.36 857 25.31 -2.7 27.1 84 -5.2 22.7 0
01:40 1028 30.36 857 25.31 -2.8 26.9 83 -5.4 22.3 0
01:41 1028 30.36 857 25.31 -3 26.7 84 -5.3 22.5 0
01:42 1028 30.36 857 25.31 -2.9 26.7 85 -5.1 22.8 0
01:43 1028 30.36 857 25.31 -2.9 26.8 85 -5.1 22.8 0
01:44 1028 30.36 857 25.31 -2.9 26.8 85 -5.1 22.8 0
01:45 1028 30.36 857 25.31 -2.8 27 85 -5 23.1 0
01:46 1028 30.36 857 25.31 -2.7 27.1 84 -5 23 0
01:47 1028 30.36 857 25.31 -2.7 27.2 84 -5 23.1 0
01:48 1028 30.36 857 25.31 -2.7 27.2 84 -5 22.9 0
01:49 1028 30.36 857 25.31 -2.7 27.2 83 -5.1 22.8 0
01:50 1028 30.36 857 25.31 -2.8 26.9 83 -5.3 22.5 0
01:51 1028 30.36 857 25.31 -2.9 26.8 84 -5.2 22.6 0
01:52 1028 30.36 857 25.31 -3 26.7 84 -5.3 22.5 0
01:53 1028 30.36 857 25.31 -3 26.6 84 -5.3 22.5 0
01:54 1028 30.36 857 25.31 -3 26.6 85 -5.2 22.6 0
01:55 1028 30.36 857 25.31 -3.1 26.5 83 -5.5 22 0
01:56 1028 30.36 857 25.31 -3.3 26.1 83 -5.8 21.6 0
01:57 1028 30.36 857 25.31 -3.5 25.8 84 -5.8 21.5 0
01:58 1028 30.36 857 25.31 -3.7 25.4 85 -5.9 21.4 0
01:59 1028 30.36 857 25.31 -3.8 25.1 86 -5.9 21.3 0
02:00 1028 30.36 857 25.31 -3.9 25.1 88 -5.6 22 0
02:01 1028 30.36 857 25.31 -3.8 25.2 87 -5.7 21.8 0
02:02 1028 30.36 857 25.31 -3.7 25.3 85 -5.9 21.4 0
02:03 1028 30.36 857 25.31 -3.8 25.1 84 -6.1 21.1 0
02:04 1028 30.36 857 25.31 -4 24.8 85 -6.1 21 0
02:05 1028 30.36 857 25.31 -4.1 24.6 85 -6.3 20.7 0
02:06 1028 30.36 857 25.31 -4.3 24.3 86 -6.3 20.7 0
02:07 1028 30.36 857 25.31 -4.4 24 87 -6.3 20.6 0
02:08 1028 30.36 857 25.31 -4.5 23.9 88 -6.2 20.8 0
02:09 1028 30.36 857 25.31 -4.6 23.8 88 -6.3 20.7 0
02:10 1028 30.36 857 25.31 -4.6 23.8 88 -6.2 20.8 0
02:11 1028 30.36 857 25.31 -4.5 23.8 90 -6 21.3 0
02:12 1028 30.36 857 25.31 -4.3 24.2 91 -5.6 21.8 0
02:13 1028 30.36 857 25.31 -4 24.8 91 -5.2 22.6 0
02:14 1028 30.36 857 25.31 -3.6 25.5 90 -5.1 22.9 0
02:15 1028 30.36 857 25.31 -3.3 26 87 -5.2 22.6 0
02:16 1028 30.36 857 25.31 -3.2 26.3 86 -5.3 22.5 0
02:17 1028 30.36 857 25.31 -3.1 26.4 85 -5.3 22.5 0
02:18 1028 30.36 857 25.31 -3 26.5 84 -5.3 22.4 0
02:19 1028 30.36 857 25.31 -2.9 26.8 84 -5.2 22.6 0
02:20 1028 30.36 857 25.31 -2.7 27.1 84 -5.2 22.7 0
02:21 1028 30.36 857 25.31 -2.7 27.2 82 -5.2 22.6 0
02:22 1028 30.36 857 25.31 -2.7 27.2 83 -5.1 22.8 0
02:23 1028 30.36 857 25.31 -2.7 27.2 83 -5.2 22.7 0
02:24 1028 30.36 857 25.31 -2.6 27.3 83 -5.1 22.9 0
02:25 1028 30.36 857 25.31 -2.6 27.4 84 -5 23 0
02:26 1028 30.36 857 25.31 -2.5 27.6 83 -4.9 23.2 0
02:27 1028 30.36 857 25.31 -2.3 27.9 84 -4.7 23.5 0
02:28 1028 30.36 857 25.31 -2.1 28.2 83 -4.7 23.6 0
02:29 1028 30.36 857 25.31 -1.9 28.5 82 -4.6 23.8 0
02:30 1028 30.36 857 25.31 -1.8 28.8 82 -4.5 23.9 0
02:31 1028 30.36 857 25.31 -1.6 29 81 -4.4 24.1 0
02:32 1028 30.36 857 25.31 -1.5 29.3 81 -4.3 24.3 0
02:33 1028 30.36 857 25.31 -1.4 29.4 81 -4.3 24.3 0
02:34 1028 30.36 857 25.31 -1.3 29.6 81 -4.2 24.5 0
02:35 1028 30.36 857 25.31 -1.2 29.8 81 -4.1 24.6 0
02:36 1028 30.36 857 25.31 -1.1 30 80 -4.1 24.7 0
02:37 1028 30.36 857 25.31 -1 30.2 80 -4 24.7 0
02:38 1027 30.33 857 25.31 -1 30.2 79 -4.2 24.4 0
02:39 1028 30.36 857 25.31 -1.1 30.1 79 -4.2 24.4 0
02:40 1027 30.33 857 25.31 -1.2 29.9 76 -4.8 23.3 0
02:41 1027 30.33 857 25.31 -1.3 29.6 77 -4.8 23.3 0
02:42 1028 30.36 857 25.31 -1.5 29.2 81 -4.4 24 0
02:43 1028 30.36 857 25.31 -1.5 29.2 80 -4.5 23.8 0
02:44 1027 30.33 857 25.31 -1.7 29 72 -6.1 21 0
02:45 1027 30.33 857 25.31 -2.4 27.6 71 -6.9 19.5 0
02:46 1027 30.33 857 25.31 -3.3 26.1 79 -6.4 20.5 0
02:47 1027 30.33 857 25.31 -3.6 25.5 84 -5.9 21.4 0
02:48 1027 30.33 857 25.31 -3.6 25.6 86 -5.6 21.9 0
02:49 1027 30.33 857 25.31 -3.5 25.7 83 -6 21.1 0
02:50 1027 30.33 857 25.31 -3.7 25.4 81 -6.5 20.3 0
02:51 1027 30.33 857 25.31 -3.7 25.3 87 -5.6 21.8 0
02:52 1027 30.33 857 25.31 -3.4 25.8 87 -5.3 22.4 0
02:53 1027 30.33 857 25.31 -3 26.5 85 -5.2 22.7 0
02:54 1027 30.33 857 25.31 -3 26.7 80 -5.9 21.4 0
02:55 1027 30.33 857 25.31 -3.3 26.1 81 -6.1 21 0
02:56 1027 30.33 857 25.31 -3.7 25.4 80 -6.6 20.1 0
02:57 1027 30.33 857 25.31 -4.1 24.7 82 -6.7 19.9 0
02:58 1027 30.33 857 25.31 -4.3 24.3 86 -6.3 20.6 0
02:59 1027 30.33 857 25.31 -4.3 24.3 85 -6.4 20.5 0
03:00 1027 30.33 857 25.31 -4.3 24.2 86 -6.4 20.5 0
03:01 1027 30.33 857 25.31 -4.3 24.2 85 -6.5 20.4 0
03:02 1027 30.33 857 25.31 -4.4 24 86 -6.5 20.4 0
03:03 1028 30.36 857 25.31 -4.5 23.9 86 -6.5 20.2 0
03:04 1028 30.36 857 25.31 -4.6 23.8 88 -6.3 20.6 0
03:05 1028 30.36 857 25.31 -4.5 23.8 87 -6.4 20.5 0
03:06 1027 30.33 857 25.31 -4.6 23.8 87 -6.3 20.6 0
03:07 1027 30.33 857 25.31 -4.4 24 88 -6.2 20.9 0
03:08 1027 30.33 857 25.31 -4.3 24.3 88 -6.1 21.1 0
03:09 1027 30.33 857 25.31 -4.1 24.6 87 -6.1 21.1 0
03:10 1027 30.33 857 25.31 -4 24.8 87 -5.9 21.4 0
03:11 1027 30.33 857 25.31 -3.6 25.4 86 -5.7 21.8 0
03:12 1027 30.33 857 25.31 -3.4 25.9 84 -5.7 21.7 0
03:13 1027 30.33 857 25.31 -3.3 26 83 -5.8 21.5 0
03:14 1027 30.33 856 25.28 -3.3 26 84 -5.7 21.8 0
03:15 1027 30.33 856 25.28 -3.3 26 83 -5.8 21.6 0
03:16 1027 30.33 856 25.28 -3.1 26.3 83 -5.6 21.9 0
03:17 1027 30.33 856 25.28 -3.1 26.5 81 -5.9 21.3 0
03:18 1027 30.33 856 25.28 -3.1 26.4 80 -6.1 21.1 0
03:19 1027 30.33 856 25.28 -3.3 26.1 79 -6.5 20.4 0
03:20 1027 30.33 856 25.28 -3.6 25.4 79 -6.7 19.9 0
03:21 1027 30.33 856 25.28 -4.1 24.7 83 -6.6 20.1 0
03:22 1027 30.33 856 25.28 -4.2 24.4 84 -6.5 20.4 0
03:23 1027 30.33 856 25.28 -4.2 24.5 85 -6.3 20.7 0
03:24 1027 30.33 856 25.28 -4 24.8 86 -6 21.3 0
03:25 1027 30.33 856 25.28 -3.6 25.6 88 -5.3 22.5 0
03:26 1027 30.33 856 25.28 -2.8 27 84 -5.1 22.9 0
03:27 1027 30.33 856 25.28 -2.1 28.2 81 -4.9 23.1 0
03:28 1027 30.33 856 25.28 -1.7 28.9 81 -4.6 23.7 0
03:29 1027 30.33 856 25.28 -1.5 29.3 79 -4.7 23.5 0
03:30 1027 30.33 856 25.28 -1.5 29.3 76 -5.2 22.6 0
03:31 1027 30.33 856 25.28 -1.6 29.1 80 -4.7 23.6 0
03:32 1027 30.33 856 25.28 -1.6 29.1 79 -4.8 23.3 0
03:33 1027 30.33 856 25.28 -1.7 29 79 -4.8 23.4 0
03:34 1027 30.33 856 25.28 -1.7 28.9 78 -5 22.9 0
03:35 1027 30.33 856 25.28 -2 28.5 80 -4.9 23.2 0
03:36 1027 30.33 856 25.28 -2.2 28.1 81 -5 22.9 0
03:37 1027 30.33 856 25.28 -2.4 27.7 81 -5.3 22.5 0
03:38 1027 30.33 856 25.28 -2.6 27.3 84 -5 23 0
03:39 1027 30.33 856 25.28 -2.6 27.3 84 -4.9 23.2 0
03:40 1027 30.33 856 25.28 -2.5 27.5 83 -5 22.9 0
03:41 1027 30.33 856 25.28 -2.6 27.2 81 -5.5 22.1 0
03:42 1027 30.33 856 25.28 -3 26.6 83 -5.5 22.2 0
03:43 1027 30.33 856 25.28 -3.1 26.4 87 -4.9 23.2 0
03:44 1027 30.33 856 25.28 -2.9 26.8 84 -5.3 22.5 0
03:45 1027 30.33 856 25.28 -2.9 26.7 81 -5.7 21.7 0
03:46 1027 30.33 856 25.28 -3.2 26.3 80 -6.2 20.8 0
03:47 1027 30.33 856 25.28 -3.5 25.7 82 -6.2 20.8 0
03:48 1027 30.33 856 25.28 -3.8 25.1 86 -5.9 21.4 0
03:49 1027 30.33 856 25.28 -3.8 25.2 88 -5.6 22 0
03:50 1027 30.33 856 25.28 -3.6 25.4 86 -5.6 21.9 0
03:51 1027 30.33 856 25.28 -3.7 25.3 84 -6 21.1 0
03:52 1027 30.33 856 25.28 -3.9 24.9 87 -5.8 21.5 0
03:53 1027 30.33 856 25.28 -4 24.9 86 -5.9 21.4 0
03:54 1027 30.33 856 25.28 -4 24.7 86 -6.1 21 0
03:55 1027 30.33 856 25.28 -4.1 24.5 87 -6 21.1 0
03:56 1027 30.33 856 25.28 -4 24.8 90 -5.5 22.2 0
03:57 1027 30.33 856 25.28 -3.8 25.1 85 -6 21.2 0
03:58 1027 30.33 856 25.28 -3.9 24.9 85 -6.1 20.9 0
03:59 1027 30.33 856 25.28 -4.1 24.7 86 -6.1 21 0
04:00 1027 30.33 856 25.28 -4.2 24.5 87 -6 21.1 0
04:01 1027 30.33 856 25.28 -4.2 24.5 87 -6 21.2 0
04:02 1027 30.33 856 25.28 -4.2 24.5 87 -6 21.2 0
04:03 1027 30.33 856 25.28 -4.2 24.4 88 -6 21.3 0
04:04 1027 30.33 856 25.28 -4.2 24.5 88 -5.9 21.5 0
04:05 1027 30.33 856 25.28 -4.2 24.4 89 -5.7 21.7 0
04:06 1027 30.33 856 25.28 -4.2 24.5 87 -6.1 21.1 0
04:07 1027 30.33 856 25.28 -4.3 24.3 89 -5.8 21.5 0
04:08 1027 30.33 856 25.28 -4.2 24.4 87 -6 21.2 0
04:09 1027 30.33 856 25.28 -4.3 24.3 89 -5.8 21.6 0
04:10 1027 30.33 856 25.28 -4.2 24.4 89 -5.8 21.6 0
04:11 1027 30.33 856 25.28 -4.3 24.2 87 -6.1 21 0
04:12 1027 30.33 856 25.28 -4.4 24 87 -6.3 20.7 0
04:13 1027 30.33 856 25.28 -4.5 23.9 90 -5.9 21.3 0
04:14 1027 30.33 856 25.28 -4.3 24.2 94 -5.2 22.6 0
04:15 1027 30.33 856 25.28 -3.6 25.5 90 -5.1 22.9 0
04:16 1027 30.33 856 25.28 -3.3 26 85 -5.5 22.2 0
04:17 1027 30.33 856 25.28 -3.4 25.9 84 -5.7 21.7 0
04:18 1027 30.33 856 25.28 -3.6 25.6 88 -5.2 22.6 0
04:19 1027 30.33 856 25.28 -3.3 26.1 86 -5.3 22.5 0
04:20 1027 30.33 856 25.28 -3.3 26.1 83 -5.8 21.6 0
04:21 1027 30.33 856 25.28 -3.6 25.5 83 -6.1 21 0
04:22 1027 30.33 856 25.28 -4 24.9 85 -6.2 20.9 0
04:23 1027 30.33 856 25.28 -4.2 24.4 87 -6.1 21.1 0
04:24 1027 30.33 856 25.28 -4.2 24.4 88 -5.9 21.4 0
04:25 1027 30.33 856 25.28 -4.2 24.4 88 -5.9 21.4 0
04:26 1027 30.33 856 25.28 -4.3 24.3 86 -6.3 20.7 0
04:27 1027 30.33 856 25.28 -4.4 24.1 86 -6.3 20.6 0
04:28 1027 30.33 856 25.28 -4.5 23.9 87 -6.4 20.5 0
04:29 1027 30.33 856 25.28 -4.6 23.7 87 -6.5 20.2 0
04:30 1027 30.33 856 25.28 -4.7 23.5 88 -6.3 20.6 0
04:31 1027 30.33 856 25.28 -4.7 23.6 90 -6.1 21.1 0
04:32 1027 30.33 856 25.28 -4.5 23.9 91 -5.8 21.5 0
04:33 1027 30.33 856 25.28 -4.2 24.4 89 -5.7 21.7 0
04:34 1027 30.33 856 25.28 -4.1 24.7 87 -5.9 21.3 0
04:35 1027 30.33 856 25.28 -4 24.7 87 -5.9 21.3 0
04:36 1027 30.33 856 25.28 -4.1 24.7 86 -6 21.2 0
04:37 1027 30.33 856 25.28 -4.2 24.5 88 -5.9 21.3 0
04:38 1027 30.33 856 25.28 -4.2 24.5 87 -6 21.3 0
04:39 1027 30.33 856 25.28 -4.2 24.5 88 -5.9 21.4 0
04:40 1027 30.33 856 25.28 -4.1 24.7 88 -5.7 21.7 0
04:41 1027 30.33 856 25.28 -3.9 25.1 87 -5.7 21.8 0
04:42 1027 30.33 856 25.28 -3.7 25.4 85 -5.8 21.5 0
04:43 1027 30.33 856 25.28 -3.7 25.3 86 -5.7 21.7 0
04:44 1027 30.33 856 25.28 -3.6 25.5 84 -6 21.3 0
04:45 1027 30.33 856 25.28 -3.7 25.4 85 -5.8 21.6 0
04:46 1027 30.33 856 25.28 -3.6 25.6 85 -5.8 21.6 0
04:47 1027 30.33 856 25.28 -3.5 25.7 84 -5.9 21.5 0
04:48 1027 30.33 856 25.28 -3.5 25.6 84 -5.8 21.6 0
04:49 1027 30.33 856 25.28 -3.6 25.5 85 -5.7 21.7 0
04:50 1027 30.33 856 25.28 -3.5 25.7 85 -5.7 21.7 0
04:51 1027 30.33 856 25.28 -3.5 25.8 83 -5.9 21.4 0
04:52 1027 30.33 856 25.28 -3.5 25.7 85 -5.6 21.9 0
04:53 1027 30.33 856 25.28 -3.3 26 85 -5.4 22.2 0
04:54 1027 30.33 856 25.28 -3.1 26.5 84 -5.4 22.3 0
04:55 1027 30.33 856 25.28 -3.1 26.4 81 -5.9 21.4 0
04:56 1027 30.33 856 25.28 -3.4 25.9 84 -5.8 21.6 0
04:57 1027 30.33 856 25.28 -3.6 25.5 85 -5.8 21.5 0
04:58 1026 30.3 856 25.28 -3.8 25.1 85 -6 21.2 0
04:59 1026 30.3 856 25.28 -4 24.8 87 -5.9 21.4 0
05:00 1026 30.3 856 25.28 -4.1 24.6 87 -5.9 21.4 0
05:01 1026 30.3 856 25.28 -4.2 24.5 89 -5.8 21.6 0
05:02 1026 30.3 855 25.25 -4.1 24.7 90 -5.5 22 0
05:03 1026 30.3 855 25.25 -4 24.8 89 -5.5 22.1 0
05:04 1026 30.3 855 25.25 -4 24.8 89 -5.6 21.9 0
05:05 1026 30.3 855 25.25 -4 24.9 89 -5.5 22.1 0
05:06 1026 30.3 855 25.25 -4 24.9 89 -5.5 22.1 0
05:07 1026 30.3 855 25.25 -3.9 24.9 89 -5.6 22 0
05:08 1026 30.3 855 25.25 -4 24.8 88 -5.7 21.8 0
05:09 1026 30.3 855 25.25 -4.1 24.7 88 -5.7 21.7 0
05:10 1026 30.3 855 25.25 -4.1 24.6 88 -5.8 21.6 0
05:11 1026 30.3 855 25.25 -4.2 24.5 90 -5.6 21.9 0
05:12 1026 30.3 855 25.25 -4 24.8 91 -5.3 22.4 0
05:13 1026 30.3 856 25.28 -3.8 25.2 90 -5.2 22.6 0
05:14 1026 30.3 855 25.25 -3.6 25.6 89 -5.1 22.8 0
05:15 1026 30.3 855 25.25 -3.4 25.9 88 -5.1 22.8 0
05:16 1026 30.3 855 25.25 -3.2 26.2 87 -5.1 22.7 0
05:17 1026 30.3 855 25.25 -3.1 26.5 85 -5.2 22.6 0
05:18 1026 30.3 855 25.25 -3 26.6 85 -5.2 22.7 0
05:19 1026 30.3 855 25.25 -2.9 26.7 84 -5.2 22.6 0
05:20 1026 30.3 855 25.25 -2.9 26.8 84 -5.2 22.7 0
05:21 1026 30.3 855 25.25 -2.8 27 83 -5.3 22.5 0
05:22 1026 30.3 855 25.25 -2.7 27.1 82 -5.3 22.4 0
05:23 1026 30.3 855 25.25 -2.8 27 82 -5.5 22.1 0
05:24 1026 30.3 855 25.25 -2.9 26.7 81 -5.7 21.7 0
05:25 1026 30.3 855 25.25 -3.1 26.4 82 -5.8 21.5 0
05:26 1026 30.3 855 25.25 -3.3 26 82 -6 21.2 0
05:27 1026 30.3 855 25.25 -3.5 25.7 84 -5.8 21.6 0
05:28 1026 30.3 855 25.25 -3.4 25.8 85 -5.6 21.9 0
05:29 1026 30.3 855 25.25 -3.2 26.2 84 -5.6 21.9 0
05:30 1026 30.3 855 25.25 -3.1 26.5 83 -5.5 22 0
05:31 1026 30.3 855 25.25 -3 26.5 82 -5.7 21.8 0
05:32 1026 30.3 855 25.25 -3.1 26.5 82 -5.7 21.8 0
05:33 1026 30.3 855 25.25 -3.1 26.4 82 -5.8 21.6 0
05:34 1026 30.3 855 25.25 -3.3 26.1 80 -6.2 20.8 0
05:35 1026 30.3 855 25.25 -3.7 25.3 81 -6.5 20.2 0
05:36 1026 30.3 855 25.25 -4.1 24.6 84 -6.4 20.4 0
05:37 1026 30.3 855 25.25 -4.4 24 85 -6.6 20.1 0
05:38 1026 30.3 855 25.25 -4.7 23.6 86 -6.7 20 0
05:39 1026 30.3 855 25.25 -4.9 23.3 88 -6.5 20.3 0
05:40 1026 30.3 855 25.25 -4.8 23.3 90 -6.2 20.8 0
05:41 1026 30.3 855 25.25 -4.8 23.3 91 -6.1 21.1 0
05:42 1026 30.3 855 25.25 -4.7 23.6 91 -5.9 21.4 0
05:43 1026 30.3 855 25.25 -4.5 23.9 91 -5.7 21.7 0
05:44 1026 30.3 855 25.25 -4.3 24.2 90 -5.7 21.7 0
05:45 1026 30.3 855 25.25 -4.2 24.4 90 -5.6 21.9 0
05:46 1026 30.3 855 25.25 -4.1 24.7 89 -5.6 22 0
05:47 1026 30.3 855 25.25 -3.9 24.9 89 -5.4 22.2 0
05:48 1026 30.3 855 25.25 -3.7 25.3 88 -5.4 22.3 0
05:49 1026 30.3 855 25.25 -3.5 25.7 87 -5.3 22.4 0
05:50 1026 30.3 855 25.25 -3.3 26.1 86 -5.3 22.4 0
05:51 1026 30.3 855 25.25 -3.3 26 84 -5.6 21.8 0
05:52 1026 30.3 855 25.25 -3.4 25.9 86 -5.4 22.2 0
05:53 1026 30.3 855 25.25 -3.5 25.8 84 -5.8 21.6 0
05:54 1026 30.3 855 25.25 -3.6 25.5 83 -6.1 21 0
05:55 1026 30.3 855 25.25 -3.9 25 85 -6.1 21 0
05:56 1026 30.3 855 25.25 -4.1 24.7 87 -5.9 21.4 0
05:57 1026 30.3 855 25.25 -4.1 24.7 88 -5.8 21.6 0
05:58 1026 30.3 855 25.25 -4 24.8 88 -5.7 21.8 0
05:59 1026 30.3 855 25.25 -3.9 24.9 88 -5.6 21.9 0
06:00 1026 30.3 855 25.25 -3.8 25.1 88 -5.6 22 0
06:01 1026 30.3 855 25.25 -3.9 25.1 88 -5.6 22 0
06:02 1026 30.3 855 25.25 -3.8 25.1 89 -5.3 22.4 0
06:03 1026 30.3 855 25.25 -3.7 25.3 89 -5.3 22.4 0
06:04 1026 30.3 855 25.25 -3.7 25.3 90 -5.2 22.7 0
06:05 1026 30.3 855 25.25 -3.6 25.6 89 -5.1 22.8 0
06:06 1026 30.3 855 25.25 -3.5 25.7 88 -5.2 22.6 0
06:07 1026 30.3 855 25.25 -3.5 25.6 87 -5.4 22.3 0
06:08 1026 30.3 855 25.25 -3.6 25.5 87 -5.5 22.1 0
06:09 1026 30.3 855 25.25 -3.8 25.2 87 -5.6 21.9 0
06:10 1026 30.3 855 25.25 -3.9 25.1 88 -5.6 21.9 0
06:11 1026 30.3 855 25.25 -3.9 25.1 88 -5.6 21.9 0
06:12 1026 30.3 855 25.25 -3.9 25 88 -5.7 21.8 0
06:13 1026 30.3 855 25.25 -3.9 25 88 -5.6 22 0
06:14 1026 30.3 855 25.25 -3.9 25 88 -5.6 22 0
06:15 1026 30.3 855 25.25 -3.8 25.1 88 -5.5 22.1 0
06:16 1026 30.3 855 25.25 -3.8 25.1 89 -5.5 22.2 0
06:17 1026 30.3 855 25.25 -3.8 25.1 88 -5.5 22.1 0
06:18 1026 30.3 855 25.25 -3.8 25.1 89 -5.4 22.2 0
06:19 1026 30.3 855 25.25 -3.9 25 89 -5.5 22.1 0
06:20 1026 30.3 855 25.25 -3.8 25.1 89 -5.4 22.4 0
06:21 1026 30.3 855 25.25 -3.8 25.2 90 -5.2 22.6 0
06:22 1026 30.3 855 25.25 -3.6 25.5 90 -5 23 0
06:23 1026 30.3 855 25.25 -3.4 26 88 -5.1 22.8 0
06:24 1026 30.3 855 25.25 -3.1 26.4 86 -5.2 22.7 0
06:25 1026 30.3 855 25.25 -2.8 26.9 84 -5.2 22.6 0
06:26 1026 30.3 855 25.25 -2.6 27.3 85 -4.7 23.5 0
06:27 1026 30.3 855 25.25 -2.1 28.2 82 -4.7 23.5 0
06:28 1026 30.3 855 25.25 -1.8 28.8 80 -4.8 23.3 0
06:29 1026 30.3 855 25.25 -1.7 29 77 -5.2 22.7 0
06:30 1026 30.3 855 25.25 -2.1 28.2 75 -5.9 21.4 0
06:31 1026 30.3 855 25.25 -2.8 27 77 -6.2 20.8 0
06:32 1026 30.3 855 25.25 -3.4 25.9 80 -6.4 20.4 0
06:33 1026 30.3 855 25.25 -3.9 25 82 -6.5 20.2 0
06:34 1026 30.3 855 25.25 -4.2 24.5 84 -6.5 20.3 0
06:35 1026 30.3 855 25.25 -4.5 23.9 84 -6.9 19.6 0
06:36 1026 30.3 855 25.25 -4.7 23.5 86 -6.7 19.9 0
06:37 1026 30.3 855 25.25 -4.8 23.4 87 -6.6 20.1 0
06:38 1026 30.3 855 25.25 -4.9 23.2 85 -7 19.4 0
06:39 1026 30.3 855 25.25 -5 22.9 88 -6.7 19.9 0
06:40 1026 30.3 855 25.25 -5.1 22.9 90 -6.5 20.4 0
06:41 1026 30.3 855 25.25 -4.9 23.1 92 -6.1 21 0
06:42 1026 30.3 855 25.25 -4.8 23.4 92 -5.8 21.5 0
06:43 1026 30.3 855 25.25 -4.5 23.9 92 -5.6 21.9 0
06:44 1026 30.3 855 25.25 -4.3 24.2 91 -5.6 21.9 0
06:45 1026 30.3 855 25.25 -4.2 24.4 89 -5.8 21.5 0
06:46 1026 30.3 855 25.25 -4.3 24.3 89 -5.8 21.6 0
06:47 1026 30.3 855 25.25 -4.3 24.3 89 -5.8 21.5 0
06:48 1026 30.3 855 25.25 -4.3 24.2 88 -6 21.2 0
06:49 1026 30.3 855 25.25 -4.4 24.1 88 -6.1 21 0
06:50 1026 30.3 855 25.25 -4.5 24 88 -6.2 20.9 0
06:51 1026 30.3 855 25.25 -4.5 23.9 88 -6.2 20.8 0
06:52 1026 30.3 855 25.25 -4.5 23.8 89 -6.1 21.1 0
06:53 1026 30.3 855 25.25 -4.6 23.8 89 -6 21.1 0
06:54 1026 30.3 855 25.25 -4.5 23.8 90 -5.9 21.4 0
06:55 1026 30.3 855 25.25 -4.5 23.9 89 -6 21.1 0
06:56 1026 30.3 855 25.25 -4.5 24 88 -6.2 20.8 0
06:57 1026 30.3 855 25.25 -4.6 23.8 88 -6.3 20.7 0
06:58 1026 30.3 855 25.25 -4.6 23.7 90 -6.1 21 0
06:59 1026 30.3 855 25.25 -4.6 23.7 89 -6.2 20.9 0
07:00 1026 30.3 855 25.25 -4.6 23.7 91 -5.9 21.4 0
07:01 1026 30.3 855 25.25 -4.4 24.1 91 -5.7 21.7 0
07:02 1026 30.3 855 25.25 -4.4 24.2 87 -6.2 20.9 0
07:03 1026 30.3 855 25.25 -4.5 23.8 86 -6.5 20.3 0
07:04 1026 30.3 855 25.25 -4.8 23.4 86 -6.7 20 0
07:05 1026 30.3 855 25.25 -4.9 23.1 87 -6.7 19.9 0
07:06 1026 30.3 855 25.25 -5 23 89 -6.6 20.1 0
07:07 1026 30.3 855 25.25 -5 23 87 -6.9 19.6 0
07:08 1026 30.3 855 25.25 -5.2 22.7 88 -7 19.5 0
07:09 1026 30.3 855 25.25 -5.3 22.5 90 -6.7 20 0
07:10 1026 30.3 855 25.25 -5.2 22.7 91 -6.4 20.5 0
07:11 1026 30.3 855 25.25 -5.1 22.8 91 -6.4 20.5 0
07:12 1026 30.3 855 25.25 -5 22.9 91 -6.3 20.7 0
07:13 1026 30.3 855 25.25 -5 23.1 91 -6.2 20.8 0
07:14 1026 30.3 855 25.25 -5 23.1 90 -6.3 20.7 0
07:15 1026 30.3 855 25.25 -5 23 90 -6.5 20.3 0
07:16 1026 30.3 855 25.25 -5.2 22.7 90 -6.6 20.1 0
07:17 1026 30.3 855 25.25 -5.2 22.7 90 -6.6 20.1 0
07:18 1026 30.3 855 25.25 -5.2 22.6 89 -6.7 19.9 0
07:19 1026 30.3 855 25.25 -5.4 22.3 89 -6.9 19.6 0
07:20 1026 30.3 855 25.25 -5.5 22.1 90 -7 19.5 0
07:21 1026 30.3 855 25.25 -5.6 21.9 90 -6.9 19.5 0
07:22 1026 30.3 855 25.25 -5.7 21.8 91 -6.9 19.6 0
07:23 1026 30.3 855 25.25 -5.6 21.9 91 -6.9 19.6 0
07:24 1026 30.3 855 25.25 -5.7 21.8 90 -7 19.4 0
07:25 1026 30.3 855 25.25 -5.7 21.7 91 -7 19.5 0
07:26 1026 30.3 855 25.25 -5.7 21.7 92 -6.8 19.8 0
07:27 1026 30.3 855 25.25 -5.6 21.9 92 -6.7 20 0
07:28 1026 30.3 855 25.25 -5.5 22.1 92 -6.6 20.2 0
07:29 1026 30.3 855 25.25 -5.4 22.3 91 -6.7 20 0
07:30 1026 30.3 855 25.25 -5.4 22.2 90 -6.8 19.7 0
07:31 1026 30.3 855 25.25 -5.5 22.1 90 -6.9 19.6 0
07:32 1026 30.3 855 25.25 -5.5 22.1 90 -6.9 19.6 0
07:33 1026 30.3 855 25.25 -5.5 22 90 -6.9 19.6 0
07:34 1026 30.3 855 25.25 -5.5 22.1 91 -6.8 19.7 0
07:35 1026 30.3 855 25.25 -5.5 22 90 -6.9 19.6 0
07:36 1026 30.3 855 25.25 -5.5 22.1 91 -6.7 19.9 0
07:37 1026 30.3 855 25.25 -5.4 22.3 92 -6.5 20.3 0
07:38 1026 30.3 855 25.25 -5.3 22.5 91 -6.5 20.3 0
07:39 1026 30.3 855 25.25 -5.2 22.7 92 -6.3 20.6 0
07:40 1026 30.3 855 25.25 -5.1 22.8 91 -6.4 20.5 0
07:41 1026 30.3 855 25.25 -5.1 22.9 91 -6.4 20.5 0
07:42 1026 30.3 855 25.25 -5.1 22.9 90 -6.4 20.5 0
07:43 1026 30.3 855 25.25 -5.1 22.9 91 -6.4 20.5 0
07:44 1026 30.3 855 25.25 -5 23 91 -6.3 20.7 0
07:45 1026 30.3 855 25.25 -5 23.1 92 -6.1 21 0
07:46 1026 30.3 855 25.25 -4.9 23.3 92 -6 21.3 0
07:47 1026 30.3 855 25.25 -4.7 23.5 92 -5.8 21.6 0
07:48 1026 30.3 855 25.25 -4.5 24 92 -5.6 21.9 0
07:49 1026 30.3 855 25.25 -4.2 24.4 91 -5.5 22.1 0
07:50 1026 30.3 855 25.25 -4 24.8 89 -5.5 22.1 0
07:51 1026 30.3 855 25.25 -3.8 25.1 89 -5.4 22.2 0
07:52 1026 30.3 855 25.25 -3.8 25.2 88 -5.4 22.2 0
07:53 1026 30.3 855 25.25 -3.7 25.4 87 -5.5 22.1 0
07:54 1026 30.3 855 25.25 -3.7 25.4 86 -5.7 21.8 0
07:55 1026 30.3 855 25.25 -3.8 25.2 86 -5.8 21.6 0
07:56 1026 30.3 855 25.25 -3.9 25 87 -5.8 21.6 0
07:57 1026 30.3 855 25.25 -4 24.8 88 -5.7 21.8 0
07:58 1026 30.3 855 25.25 -4 24.9 88 -5.7 21.8 0
07:59 1026 30.3 855 25.25 -4 24.8 90 -5.5 22.1 0
08:00 1026 30.3 855 25.25 -3.9 24.9 89 -5.5 22.1 0
08:01 1026 30.3 855 25.25 -3.9 24.9 89 -5.5 22.1 0
08:02 1026 30.3 855 25.25 -3.9 24.9 89 -5.5 22.1 0
08:03 1026 30.3 855 25.25 -4 24.9 88 -5.6 21.9 0
08:04 1026 30.3 855 25.25 -4.1 24.7 88 -5.7 21.8 0
08:05 1026 30.3 855 25.25 -4.1 24.6 89 -5.7 21.7 0
08:06 1026 30.3 855 25.25 -4.2 24.5 89 -5.7 21.8 0
08:07 1026 30.3 855 25.25 -4.2 24.5 90 -5.5 22.1 0
08:08 1026 30.3 855 25.25 -4.1 24.6 91 -5.4 22.3 0
08:09 1026 30.3 855 25.25 -4 24.8 91 -5.2 22.6 0
08:10 1026 30.3 855 25.25 -3.9 25 91 -5.1 22.8 0
08:11 1026 30.3 855 25.25 -3.8 25.1 91 -5.1 22.9 0
08:12 1026 30.3 855 25.25 -3.7 25.3 91 -5 23.1 0
08:13 1026 30.3 855 25.25 -3.6 25.5 90 -5 23 0
08:14 1026 30.3 855 25.25 -3.5 25.7 90 -4.9 23.2 0
08:15 1026 30.3 855 25.25 -3.5 25.7 90 -4.9 23.1 0
08:16 1026 30.3 855 25.25 -3.4 25.8 90 -4.8 23.3 0
08:17 1026 30.3 855 25.25 -3.3 26 90 -4.7 23.5 0
08:18 1026 30.3 855 25.25 -3.1 26.4 89 -4.6 23.7 0
08:19 1026 30.3 855 25.25 -3 26.6 89 -4.6 23.7 0
08:20 1026 30.3 855 25.25 -2.9 26.8 89 -4.5 23.9 0
08:21 1026 30.3 855 25.25 -2.8 27 88 -4.5 24 0
08:22 1026 30.3 855 25.25 -2.7 27.2 87 -4.5 23.9 0
08:23 1026 30.3 855 25.25 -2.6 27.4 87 -4.5 23.9 0
08:24 1026 30.3 855 25.25 -2.6 27.4 86 -4.5 23.8 0
08:25 1026 30.3 855 25.25 -2.6 27.4 86 -4.6 23.7 0
08:26 1026 30.3 855 25.25 -2.5 27.4 85 -4.7 23.6 0
08:27 1026 30.3 855 25.25 -2.5 27.4 85 -4.7 23.5 0
08:28 1025 30.27 855 25.25 -2.5 27.5 85 -4.8 23.4 0
08:29 1026 30.3 855 25.25 -2.5 27.4 84 -4.8 23.4 0
08:30 1026 30.3 855 25.25 -2.5 27.5 84 -4.8 23.3 0
08:31 1026 30.3 855 25.25 -2.3 27.8 83 -4.8 23.3 0
08:32 1026 30.3 855 25.25 -2.2 28 83 -4.8 23.4 0
08:33 1026 30.3 855 25.25 -2.1 28.2 83 -4.7 23.6 0
08:34 1026 30.3 855 25.25 -2.1 28.3 82 -4.7 23.5 0
08:35 1026 30.3 855 25.25 -2 28.5 81 -4.8 23.4 0
08:36 1026 30.3 855 25.25 -1.9 28.6 80 -4.8 23.3 0
08:37 1026 30.3 855 25.25 -1.7 28.9 80 -4.8 23.4 0
08:38 1026 30.3 855 25.25 -1.6 29.1 79 -4.7 23.5 0
08:39 1026 30.3 855 25.25 -1.5 29.4 79 -4.7 23.6 0
08:40 1026 30.3 855 25.25 -1.4 29.4 78 -4.7 23.5 0
08:41 1026 30.3 855 25.25 -1.4 29.5 78 -4.7 23.6 0
08:42 1026 30.3 855 25.25 -1.3 29.6 79 -4.6 23.8 0
08:43 1026 30.3 855 25.25 -1.3 29.7 79 -4.5 23.8 0
08:44 1026 30.3 855 25.25 -1.2 29.8 78 -4.6 23.7 0
08:45 1026 30.3 855 25.25 -1.2 29.9 77 -4.7 23.6 0
08:46 1025 30.27 855 25.25 -1.1 30 77 -4.6 23.8 0
08:47 1025 30.27 855 25.25 -1 30.1 77 -4.5 23.9 0
08:48 1025 30.27 855 25.25 -1 30.3 77 -4.4 24 0
08:49 1025 30.27 855 25.25 -0.9 30.4 78 -4.2 24.4 0
08:50 1025 30.27 855 25.25 -0.8 30.6 77 -4.3 24.3 0
08:51 1025 30.27 855 25.25 -0.7 30.8 77 -4.2 24.4 0
08:52 1025 30.27 855 25.25 -0.5 31 77 -4.2 24.5 0
08:53 1025 30.27 854 25.22 -0.4 31.2 75 -4.4 24.1 0
08:54 1025 30.27 854 25.22 -0.3 31.5 76 -4.1 24.7 0
08:55 1025 30.27 854 25.22 -0.2 31.6 74 -4.2 24.4 0
08:56 1025 30.27 854 25.22 -0.1 31.8 75 -4.1 24.7 0
08:57 1025 30.27 854 25.22 -0.1 31.9 76 -3.8 25.1 0
08:58 1025 30.27 854 25.22 -0 32 75 -4 24.9 0
08:59 1025 30.27 854 25.22 0 32.1 74 -4 24.8 0
09:00 1025 30.27 854 25.22 0.1 32.2 75 -3.9 25 0
09:01 1025 30.27 854 25.22 0.2 32.3 75 -3.8 25.2 0
09:02 1025 30.27 854 25.22 0.2 32.4 76 -3.6 25.6 0
09:03 1025 30.27 854 25.22 0.3 32.6 76 -3.5 25.7 0
09:04 1025 30.27 854 25.22 0.4 32.8 75 -3.5 25.8 0
09:05 1025 30.27 854 25.22 0.5 32.9 75 -3.4 25.9 0
09:06 1025 30.27 854 25.22 0.6 33 74 -3.5 25.7 0
09:07 1025 30.27 854 25.22 0.7 33.2 75 -3.2 26.2 0
09:08 1025 30.27 854 25.22 0.7 33.3 73 -3.5 25.7 0
09:09 1025 30.27 854 25.22 0.8 33.5 75 -3.1 26.5 0
09:10 1025 30.27 854 25.22 0.9 33.6 74 -3.3 26.1 0
09:11 1025 30.27 854 25.22 1 33.8 73 -3.4 25.9 0
09:12 1025 30.27 854 25.22 1 33.9 72 -3.4 25.8 0
09:13 1025 30.27 854 25.22 1.2 34.1 71 -3.5 25.8 0
09:14 1025 30.27 854 25.22 1.3 34.4 72 -3.2 26.2 0
09:15 1025 30.27 854 25.22 1.5 34.6 69 -3.7 25.4 0
09:16 1025 30.27 854 25.22 1.6 35 70 -3.3 26.1 0
09:17 1025 30.27 854 25.22 1.8 35.2 70 -3.1 26.5 0
09:18 1025 30.27 854 25.22 1.9 35.3 69 -3.2 26.3 0
09:19 1025 30.27 854 25.22 1.9 35.5 68 -3.3 26.1 0
09:20 1025 30.27 854 25.22 2 35.6 69 -3.2 26.3 0
09:21 1025 30.27 854 25.22 2.1 35.8 66 -3.6 25.5 0
09:22 1025 30.27 854 25.22 2.2 36 66 -3.6 25.6 0
09:23 1025 30.27 854 25.22 2.3 36.1 65 -3.5 25.7 0
09:24 1025 30.27 854 25.22 2.4 36.4 64 -3.7 25.4 0
09:25 1025 30.27 854 25.22 2.6 36.7 66 -3.1 26.5 0
09:26 1025 30.27 854 25.22 2.7 36.9 66 -3 26.6 0
09:27 1025 30.27 854 25.22 2.9 37.1 63 -3.5 25.7 0
09:28 1025 30.27 854 25.22 2.9 37.3 64 -3.3 26.1 0
09:29 1025 30.27 854 25.22 3 37.4 63 -3.4 25.9 0
09:30 1025 30.27 854 25.22 3.1 37.5 63 -3.3 26 0
09:31 1025 30.27 854 25.22 3.1 37.6 63 -3.3 26.1 0
09:32 1025 30.27 854 25.22 3.2 37.8 61 -3.7 25.4 0
09:33 1025 30.27 854 25.22 3.2 37.8 61 -3.5 25.8 0
09:34 1025 30.27 854 25.22 3.2 37.8 61 -3.5 25.7 0
09:35 1025 30.27 854 25.22 3.3 37.9 63 -3.1 26.4 0
09:36 1025 30.27 854 25.22 3.3 38 60 -3.7 25.3 0
09:37 1025 30.27 854 25.22 3.4 38.1 59 -4 24.9 0
09:38 1025 30.27 854 25.22 3.5 38.3 58 -4 24.8 0
09:39 1025 30.27 854 25.22 3.5 38.3 59 -3.7 25.3 0
09:40 1025 30.27 854 25.22 3.6 38.5 59 -3.6 25.4 0
09:41 1025 30.27 854 25.22 3.7 38.6 61 -3.2 26.3 0
09:42 1025 30.27 854 25.22 3.8 38.8 59 -3.5 25.6 0
09:43 1025 30.27 854 25.22 3.8 38.9 59 -3.4 25.8 0
09:44 1025 30.27 854 25.22 3.9 38.9 59 -3.4 26 0
09:45 1025 30.27 854 25.22 3.9 39.1 62 -2.6 27.2 0
09:46 1025 30.27 854 25.22 4.1 39.3 57 -3.7 25.3 0
09:47 1025 30.27 854 25.22 4.1 39.4 57 -3.6 25.5 0
09:48 1025 30.27 854 25.22 4.2 39.5 58 -3.3 26.1 0
09:49 1025 30.27 854 25.22 4.2 39.5 59 -3.2 26.3 0
09:50 1025 30.27 854 25.22 4.1 39.4 59 -3.2 26.3 0
09:51 1025 30.27 854 25.22 4 39.2 58 -3.5 25.7 0
09:52 1025 30.27 854 25.22 4 39.2 62 -2.5 27.4 0
09:53 1025 30.27 854 25.22 4.1 39.3 59 -3.2 26.2 0
09:54 1025 30.27 854 25.22 4.1 39.4 60 -3 26.6 0
09:55 1025 30.27 854 25.22 4.2 39.6 57 -3.4 25.8 0
09:56 1025 30.27 854 25.22 4.3 39.7 59 -3.1 26.5 0
09:57 1025 30.27 854 25.22 4.4 39.9 56 -3.6 25.6 0
09:58 1025 30.27 854 25.22 4.4 40 58 -3.1 26.4 0
09:59 1025 30.27 854 25.22 4.5 40.1 57 -3.3 26.1 0
10:00 1025 30.27 854 25.22 4.6 40.2 59 -2.7 27.1 0
10:01 1025 30.27 854 25.22 4.6 40.4 60 -2.5 27.4 0
10:02 1025 30.27 854 25.22 4.7 40.5 58 -2.8 26.9 0
10:03 1025 30.27 854 25.22 4.7 40.5 57 -3 26.6 0
10:04 1025 30.27 854 25.22 4.7 40.5 57 -3.1 26.4 0
10:05 1025 30.27 854 25.22 4.7 40.5 58 -2.8 26.9 0
10:06 1025 30.27 854 25.22 4.8 40.7 57 -3 26.7 0
10:07 1025 30.27 854 25.22 4.9 40.8 57 -3 26.6 0
10:08 1025 30.27 854 25.22 4.9 40.8 59 -2.4 27.6 0
10:09 1025 30.27 854 25.22 4.9 40.8 60 -2.2 28.1 0
10:10 1025 30.27 854 25.22 5 41 56 -3.1 26.4 0
10:11 1025 30.27 854 25.22 5 41.1 56 -3 26.6 0
10:12 1025 30.27 854 25.22 5 41 57 -2.8 26.9 0
10:13 1025 30.27 854 25.22 5 41.1 56 -3 26.6 0
10:14 1025 30.27 854 25.22 5.1 41.1 55 -3.1 26.3 0
10:15 1025 30.27 854 25.22 5.1 41.2 58 -2.5 27.4 0
10:16 1025 30.27 854 25.22 5.2 41.3 54 -3.3 26 0
10:17 1025 30.27 854 25.22 5.2 41.4 55 -3 26.5 0
10:18 1025 30.27 854 25.22 5.3 41.6 53 -3.4 26 0
10:19 1025 30.27 854 25.22 5.4 41.7 51 -4 24.7 0
10:20 1025 30.27 854 25.22 5.4 41.8 53 -3.4 25.9 0
10:21 1025 30.27 854 25.22 5.6 42 55 -2.7 27.1 0
10:22 1025 30.27 854 25.22 5.7 42.3 51 -3.6 25.6 0
10:23 1025 30.27 854 25.22 5.8 42.5 52 -3.4 25.9 0
10:24 1025 30.27 854 25.22 5.8 42.5 52 -3.2 26.3 0
10:25 1025 30.27 854 25.22 6 42.7 52 -3.2 26.3 0
10:26 1025 30.27 854 25.22 6.1 42.9 49 -3.9 25 0
10:27 1025 30.27 854 25.22 6.1 42.9 48 -4 24.8 0
10:28 1025 30.27 854 25.22 6.1 43 53 -2.9 26.9 0
10:29 1025 30.27 854 25.22 6.2 43.2 50 -3.5 25.6 0
10:30 1025 30.27 854 25.22 6.2 43.2 48 -4 24.8 0
10:31 1025 30.27 854 25.22 6.2 43.1 48 -4.1 24.6 0
10:32 1025 30.27 854 25.22 6.2 43.2 49 -3.8 25.1 0
10:33 1025 30.27 854 25.22 6.3 43.4 52 -2.9 26.8 0
10:34 1025 30.27 854 25.22 6.4 43.5 51 -2.9 26.9 0
10:35 1025 30.27 854 25.22 6.4 43.6 51 -2.9 26.8 0
10:36 1025 30.27 854 25.22 6.6 43.8 49 -3.5 25.8 0
10:37 1025 30.27 854 25.22 6.6 44 51 -2.9 26.8 0
10:38 1024 30.24 854 25.22 6.7 44 52 -2.5 27.5 0
10:39 1024 30.24 854 25.22 6.8 44.2 51 -2.8 27 0
10:40 1024 30.24 854 25.22 6.8 44.3 48 -3.5 25.7 0
10:41 1024 30.24 854 25.22 6.9 44.4 48 -3.3 26.1 0
10:42 1024 30.24 854 25.22 7 44.5 50 -2.7 27.2 0
10:43 1024 30.24 853 25.19 7.1 44.7 52 -2.2 28 0
10:44 1024 30.24 853 25.19 7.2 45 46 -3.7 25.3 0
10:45 1024 30.24 853 25.19 7.2 44.9 46 -3.6 25.6 0
10:46 1024 30.24 853 25.19 7.1 44.8 47 -3.4 25.8 0
10:47 1024 30.24 853 25.19 7.2 44.9 47 -3.4 25.9 0
10:48 1024 30.24 853 25.19 7.3 45.1 49 -2.6 27.3 0
10:49 1024 30.24 853 25.19 7.4 45.3 49 -2.6 27.2 0
10:50 1024 30.24 853 25.19 7.4 45.4 47 -3.2 26.2 0
10:51 1024 30.24 853 25.19 7.6 45.6 49 -2.4 27.7 0
10:52 1024 30.24 853 25.19 7.7 45.9 47 -2.8 26.9 0
10:53 1024 30.24 853 25.19 7.9 46.2 48 -2.5 27.6 0
10:54 1024 30.24 853 25.19 8 46.4 47 -2.6 27.2 0
10:55 1024 30.24 853 25.19 8.1 46.5 48 -2.2 28 0
10:56 1024 30.24 853 25.19 8.1 46.6 50 -1.7 28.9 0
10:57 1024 30.24 853 25.19 8.1 46.6 48 -2.1 28.2 0
10:58 1024 30.24 853 25.19 8.2 46.8 49 -1.9 28.6 0
10:59 1024 30.24 853 25.19 8.3 47 51 -1.2 29.9 0
11:00 1024 30.24 853 25.19 8.5 47.3 47 -2 28.4 0
11:01 1024 30.24 853 25.19 8.6 47.6 48 -1.6 29.1 0
11:02 1024 30.24 853 25.19 8.8 47.8 46 -2.2 28 0
11:03 1024 30.24 853 25.19 8.8 47.8 46 -2.2 28 0
11:04 1024 30.24 853 25.19 8.7 47.7 46 -2.1 28.2 0
11:05 1024 30.24 853 25.19 8.8 47.9 48 -1.4 29.5 0
11:06 1024 30.24 853 25.19 9.1 48.3 45 -2.4 27.8 0
11:07 1024 30.24 853 25.19 9.2 48.5 45 -2.2 28 0
11:08 1024 30.24 853 25.19 9.2 48.5 44 -2.3 27.9 0
11:09 1024 30.24 853 25.19 9.1 48.3 47 -1.6 29.1 0
11:10 1024 30.24 853 25.19 9.1 48.4 45 -2.2 28 0
11:11 1024 30.24 853 25.19 9.1 48.3 44 -2.4 27.7 0
11:12 1024 30.24 853 25.19 8.9 48.1 46 -2.1 28.2 0
11:13 1024 30.24 853 25.19 8.8 47.8 45 -2.5 27.5 0
11:14 1024 30.24 853 25.19 8.7 47.7 44 -2.8 26.9 0
11:15 1024 30.24 853 25.19 8.8 47.8 44 -2.8 26.9 0
11:16 1024 30.24 853 25.19 8.8 47.8 45 -2.4 27.6 0
11:17 1024 30.24 853 25.19 9 48.1 44 -2.7 27.1 0
11:18 1024 30.24 853 25.19 9.2 48.5 44 -2.5 27.5 0
11:19 1024 30.24 853 25.19 9.3 48.8 43 -2.7 27.2 0
11:20 1024 30.24 853 25.19 9.4 49 44 -2 28.3 0
11:21 1024 30.24 853 25.19 9.7 49.4 41 -3 26.6 0
11:22 1024 30.24 853 25.19 9.8 49.6 41 -2.7 27.1 0
11:23 1024 30.24 853 25.19 9.7 49.5 42 -2.7 27.2 0
11:24 1024 30.24 853 25.19 9.8 49.7 44 -1.9 28.6 0
11:25 1024 30.24 853 25.19 9.9 49.9 44 -1.6 29.2 0
11:26 1024 30.24 853 25.19 10 50 42 -2.1 28.2 0
11:27 1024 30.24 853 25.19 9.9 49.8 42 -2.5 27.5 0
11:28 1024 30.24 853 25.19 9.8 49.6 42 -2.6 27.3 0
11:29 1024 30.24 853 25.19 9.7 49.4 42 -2.4 27.6 0
11:30 1024 30.24 853 25.19 9.6 49.3 42 -2.8 27 0
11:31 1024 30.24 853 25.19 9.5 49.2 44 -2.2 28.1 0
11:32 1024 30.24 853 25.19 9.4 49 44 -2 28.4 0
11:33 1024 30.24 853 25.19 9.5 49.1 44 -2 28.3 0
11:34 1024 30.24 853 25.19 9.6 49.2 44 -2.2 28.1 0
11:35 1024 30.24 853 25.19 9.7 49.4 43 -2.2 28 0
11:36 1024 30.24 853 25.19 9.6 49.3 46 -1.5 29.2 0
11:37 1024 30.24 853 25.19 9.6 49.3 41 -3.1 26.5 0
11:38 1024 30.24 853 25.19 9.5 49.1 42 -2.7 27.1 0
11:39 1024 30.24 853 25.19 9.5 49.2 43 -2.5 27.5 0
11:40 1024 30.24 853 25.19 9.5 49.1 42 -2.9 26.8 0
11:41 1024 30.24 853 25.19 9.5 49.1 43 -2.5 27.6 0
11:42 1024 30.24 853 25.19 9.5 49.2 43 -2.4 27.6 0
11:43 1024 30.24 853 25.19 9.6 49.2 42 -2.6 27.3 0
11:44 1024 30.24 853 25.19 9.6 49.2 41 -2.9 26.8 0
11:45 1024 30.24 853 25.19 9.6 49.2 41 -3.1 26.5 0
11:46 1024 30.24 853 25.19 9.6 49.2 41 -3.1 26.4 0
11:47 1024 30.24 853 25.19 9.6 49.2 40 -3.4 25.9 0
11:48 1024 30.24 853 25.19 9.6 49.2 42 -2.6 27.4 0
11:49 1024 30.24 853 25.19 9.6 49.4 41 -2.9 26.7 0
11:50 1024 30.24 853 25.19 9.7 49.5 40 -3.1 26.5 0
11:51 1024 30.24 853 25.19 9.7 49.4 41 -3 26.5 0
11:52 1024 30.24 853 25.19 9.6 49.4 40 -3.4 25.9 0
11:53 1024 30.24 853 25.19 9.7 49.5 42 -2.7 27.2 0
11:54 1024 30.24 853 25.19 9.9 49.8 38 -3.8 25.1 0
11:55 1024 30.24 853 25.19 9.9 49.8 41 -2.7 27.1 0
11:56 1024 30.24 853 25.19 9.9 49.8 41 -2.7 27.1 0
11:57 1024 30.24 853 25.19 10 49.9 45 -1.5 29.3 0
11:58 1023 30.21 853 25.19 9.9 49.8 45 -1.5 29.3 0
11:59 1023 30.21 853 25.19 9.6 49.2 47 -1.1 30 0
12:00 1023 30.21 853 25.19 9.3 48.8 46 -1.6 29.2 0
12:01 1023 30.21 853 25.19 9.1 48.5 49 -1.1 30.1 0
12:02 1023 30.21 853 25.19 8.9 48 48 -1.6 29.2 0
12:03 1023 30.21 853 25.19 8.8 47.8 48 -1.7 29 0
12:04 1023 30.21 853 25.19 8.7 47.7 47 -1.9 28.6 0
12:05 1023 30.21 853 25.19 8.6 47.4 48 -1.8 28.7 0
12:06 1023 30.21 853 25.19 8.6 47.4 49 -1.5 29.3 0
12:07 1023 30.21 853 25.19 8.6 47.5 45 -2.6 27.4 0
12:08 1023 30.21 853 25.19 8.6 47.5 47 -1.9 28.5 0
12:09 1023 30.21 853 25.19 8.6 47.5 49 -1.5 29.3 0
12:10 1023 30.21 853 25.19 8.7 47.6 48 -1.8 28.8 0
12:11 1023 30.21 853 25.19 8.8 47.9 46 -2.3 27.9 0
12:12 1023 30.21 853 25.19 8.7 47.7 47 -1.8 28.7 0
12:13 1023 30.21 853 25.19 8.7 47.7 46 -2.2 28.1 0
12:14 1023 30.21 853 25.19 8.6 47.5 46 -2.2 28.1 0
12:15 1023 30.21 853 25.19 8.6 47.5 47 -2.1 28.3 0
12:16 1023 30.21 853 25.19 8.7 47.6 46 -2.3 27.9 0
12:17 1023 30.21 852 25.16 8.6 47.5 47 -2 28.4 0
12:18 1023 30.21 852 25.16 8.7 47.6 45 -2.4 27.7 0
12:19 1023 30.21 853 25.19 8.7 47.7 46 -2.2 28 0
12:20 1023 30.21 853 25.19 8.7 47.6 45 -2.7 27.1 0
12:21 1023 30.21 853 25.19 8.7 47.6 49 -1.6 29.2 0
12:22 1023 30.21 853 25.19 8.8 47.8 45 -2.4 27.7 0
12:23 1023 30.21 853 25.19 8.9 48 46 -2.2 28 0
12:24 1023 30.21 853 25.19 9 48.2 47 -1.7 28.9 0
12:25 1023 30.21 853 25.19 9.2 48.5 46 -1.8 28.7 0
12:26 1023 30.21 853 25.19 9.2 48.5 44 -2.6 27.4 0
12:27 1023 30.21 852 25.16 9.1 48.3 45 -2.1 28.3 0
12:28 1023 30.21 852 25.16 9.1 48.4 44 -2.5 27.4 0
12:29 1023 30.21 852 25.16 9.1 48.4 46 -1.9 28.6 0
12:30 1023 30.21 852 25.16 9.2 48.5 44 -2.3 27.9 0
12:31 1023 30.21 852 25.16 9.3 48.7 44 -2.2 28 0
12:32 1023 30.21 852 25.16 9.4 48.9 43 -2.6 27.4 0
12:33 1023 30.21 852 25.16 9.4 49 45 -1.8 28.7 0
12:34 1023 30.21 852 25.16 9.5 49.1 43 -2.3 27.8 0
12:35 1023 30.21 852 25.16 9.6 49.2 44 -2 28.4 0
12:36 1023 30.21 852 25.16 9.6 49.4 44 -1.8 28.7 0
12:37 1023 30.21 852 25.16 9.8 49.7 43 -2.2 28 0
12:38 1023 30.21 852 25.16 10 49.9 44 -1.8 28.8 0
12:39 1023 30.21 852 25.16 10.2 50.3 41 -2.3 27.9 0
12:40 1023 30.21 852 25.16 10.3 50.5 41 -2.4 27.7 0
12:41 1023 30.21 852 25.16 10.3 50.5 42 -1.9 28.5 0
12:42 1023 30.21 852 25.16 10.2 50.3 43 -1.8 28.8 0
12:43 1023 30.21 852 25.16 10.1 50.2 42 -2 28.4 0
12:44 1023 30.21 852 25.16 10 50.1 42 -2.2 28.1 0
12:45 1023 30.21 852 25.16 9.9 49.8 42 -2.3 27.8 0
12:46 1023 30.21 852 25.16 9.9 49.7 46 -1.3 29.7 0
12:47 1023 30.21 852 25.16 9.7 49.5 42 -2.4 27.6 0
12:48 1023 30.21 852 25.16 9.6 49.4 42 -2.5 27.6 0
12:49 1023 30.21 852 25.16 9.5 49.1 44 -2.1 28.2 0
12:50 1023 30.21 852 25.16 9.6 49.2 46 -1.5 29.2 0
12:51 1023 30.21 852 25.16 9.7 49.4 45 -1.8 28.8 0
12:52 1023 30.21 852 25.16 9.8 49.6 44 -1.8 28.7 0
12:53 1023 30.21 852 25.16 9.9 49.9 44 -1.6 29.1 0
12:54 1023 30.21 852 25.16 10.1 50.1 43 -2 28.4 0
12:55 1023 30.21 852 25.16 10.1 50.2 43 -2 28.4 0
12:56 1023 30.21 852 25.16 10.1 50.3 42 -2.2 28 0
12:57 1023 30.21 852 25.16 10.2 50.3 44 -1.4 29.5 0
12:58 1023 30.21 852 25.16 10.1 50.2 41 -2.4 27.8 0
12:59 1023 30.21 852 25.16 10.1 50.3 41 -2.4 27.6 0
13:00 1023 30.21 852 25.16 10.1 50.3 42 -2.1 28.3 0
13:01 1023 30.21 852 25.16 10.1 50.1 42 -2.3 27.8 0
13:02 1023 30.21 852 25.16 10 49.9 42 -2.4 27.8 0
13:03 1023 30.21 852 25.16 9.9 49.8 42 -2.5 27.5 0
13:04 1023 30.21 852 25.16 9.9 49.9 42 -2.3 27.8 0
13:05 1023 30.21 852 25.16 10 49.9 44 -1.7 29 0
13:06 1023 30.21 852 25.16 10.1 50.1 42 -2.2 28 0
13:07 1023 30.21 852 25.16 10.2 50.4 42 -2.1 28.2 0
13:08 1023 30.21 852 25.16 10.4 50.7 43 -1.7 29 0
13:09 1023 30.21 852 25.16 10.6 51.1 42 -1.8 28.7 0
13:10 1023 30.21 852 25.16 10.8 51.5 40 -2.3 27.8 0
13:11 1023 30.21 852 25.16 10.9 51.7 39 -2.4 27.7 0
13:12 1023 30.21 852 25.16 11 51.7 40 -2.2 28.1 0
13:13 1023 30.21 852 25.16 11 51.7 38 -2.9 26.8 0
13:14 1023 30.21 852 25.16 10.9 51.6 40 -2.3 27.9 0
13:15 1023 30.21 852 25.16 10.9 51.7 40 -2.1 28.3 0
13:16 1023 30.21 852 25.16 11 51.7 42 -1.6 29.2 0
13:17 1023 30.21 852 25.16 11.1 51.9 38 -2.5 27.5 0
13:18 1023 30.21 852 25.16 11.1 51.9 40 -2.1 28.3 0
13:19 1023 30.21 852 25.16 11.1 52 38 -2.6 27.3 0
13:20 1023 30.21 852 25.16 11.1 52 39 -2.2 28 0
13:21 1023 30.21 852 25.16 11.2 52.1 40 -2 28.4 0
13:22 1023 30.21 852 25.16 11.2 52.1 39 -2.2 28 0
13:23 1023 30.21 852 25.16 11.1 52 41 -1.7 28.9 0
13:24 1023 30.21 852 25.16 11.2 52.2 39 -2.2 28 0
13:25 1023 30.21 852 25.16 11.2 52.2 39 -2.3 27.8 0
13:26 1023 30.21 852 25.16 11.2 52.2 39 -2.3 27.9 0
13:27 1023 30.21 852 25.16 11.3 52.4 38 -2.6 27.3 0
13:28 1023 30.21 852 25.16 11.2 52.1 38 -2.4 27.6 0
13:29 1023 30.21 852 25.16 11 51.9 41 -1.8 28.8 0
13:30 1023 30.21 852 25.16 11.1 52 39 -2.3 27.9 0
13:31 1023 30.21 852 25.16 11.1 52 37 -3.1 26.4 0
13:32 1023 30.21 852 25.16 11.1 51.9 39 -2.3 27.9 0
13:33 1022 30.18 852 25.16 11 51.8 39 -2.5 27.5 0
13:34 1022 30.18 852 25.16 11 51.8 38 -2.8 26.9 0
13:35 1022 30.18 852 25.16 10.9 51.6 38 -2.9 26.8 0
13:36 1022 30.18 852 25.16 10.9 51.6 39 -2.4 27.6 0
13:37 1022 30.18 852 25.16 10.9 51.5 40 -2.1 28.3 0
13:38 1022 30.18 852 25.16 10.8 51.4 38 -3 26.6 0
13:39 1022 30.18 852 25.16 10.7 51.3 39 -2.6 27.3 0
13:40 1022 30.18 852 25.16 10.7 51.3 38 -3.1 26.3 0
13:41 1022 30.18 852 25.16 10.7 51.3 40 -2.4 27.7 0
13:42 1022 30.18 852 25.16 10.8 51.4 40 -2.3 27.9 0
13:43 1022 30.18 852 25.16 10.8 51.4 39 -2.4 27.6 0
13:44 1022 30.18 852 25.16 10.7 51.2 38 -2.9 26.8 0
13:45 1022 30.18 852 25.16 10.7 51.2 39 -2.7 27.2 0
13:46 1022 30.18 852 25.16 10.6 51.1 39 -2.7 27.1 0
13:47 1022 30.18 852 25.16 10.7 51.2 38 -2.9 26.7 0
13:48 1022 30.18 851 25.13 10.8 51.4 38 -3 26.5 0
13:49 1022 30.18 851 25.13 10.9 51.6 39 -2.4 27.7 0
13:50 1022 30.18 851 25.13 10.9 51.6 41 -1.9 28.6 0
13:51 1022 30.18 851 25.13 11.1 51.9 35 -3.6 25.5 0
13:52 1022 30.18 852 25.16 11.3 52.3 35 -3.6 25.5 0
13:53 1022 30.18 852 25.16 11.3 52.4 36 -3.4 26 0
13:54 1022 30.18 852 25.16 11.4 52.5 35 -3.5 25.6 0
13:55 1022 30.18 851 25.13 11.5 52.6 37 -2.5 27.5 0
13:56 1022 30.18 851 25.13 11.5 52.7 36 -3.1 26.5 0
13:57 1022 30.18 852 25.16 11.5 52.6 38 -2.3 27.9 0
13:58 1022 30.18 852 25.16 11.6 52.8 37 -2.5 27.5 0
13:59 1022 30.18 852 25.16 11.5 52.6 35 -3.4 25.9 0
14:00 1022 30.18 852 25.16 11.3 52.3 36 -3.2 26.3 0
14:01 1022 30.18 852 25.16 11.1 52 38 -2.6 27.4 0
14:02 1022 30.18 852 25.16 11.1 51.9 38 -2.8 27 0
14:03 1022 30.18 852 25.16 11.1 52 36 -3.4 25.8 0
14:04 1022 30.18 851 25.13 11 51.8 36 -3.4 25.8 0
14:05 1022 30.18 851 25.13 10.9 51.5 37 -3.3 26.1 0
14:06 1022 30.18 851 25.13 10.8 51.5 35 -3.9 24.9 0
14:07 1022 30.18 851 25.13 10.8 51.5 37 -3.3 26 0
14:08 1022 30.18 851 25.13 10.8 51.4 37 -3.3 26 0
14:09 1022 30.18 851 25.13 10.8 51.4 36 -3.5 25.6 0
14:10 1022 30.18 851 25.13 10.8 51.4 36 -3.5 25.6 0
14:11 1022 30.18 851 25.13 10.8 51.4 38 -2.8 26.9 0
14:12 1022 30.18 851 25.13 10.8 51.5 37 -3.2 26.2 0
14:13 1022 30.18 851 25.13 10.8 51.5 38 -3.1 26.5 0
14:14 1022 30.18 851 25.13 10.9 51.6 37 -3.2 26.3 0
14:15 1022 30.18 851 25.13 11.1 51.9 34 -4 24.8 0
14:16 1022 30.18 851 25.13 11.2 52.2 37 -2.8 27 0
14:17 1022 30.18 851 25.13 11.4 52.5 35 -3.4 25.9 0
14:18 1022 30.18 851 25.13 11.5 52.6 35 -3.4 25.9 0
14:19 1022 30.18 851 25.13 11.4 52.4 35 -3.5 25.6 0
14:20 1022 30.18 851 25.13 11.3 52.4 37 -3 26.7 0
14:21 1022 30.18 851 25.13 11.4 52.5 33 -4.3 24.2 0
14:22 1022 30.18 851 25.13 11.4 52.5 35 -3.5 25.7 0
14:23 1022 30.18 851 25.13 11.4 52.6 36 -3 26.6 0
14:24 1022 30.18 851 25.13 11.4 52.5 36 -3.2 26.3 0
14:25 1022 30.18 851 25.13 11.4 52.5 33 -4.1 24.7 0
14:26 1022 30.18 851 25.13 11.4 52.5 35 -3.4 26 0
14:27 1022 30.18 851 25.13 11.6 52.8 35 -3.3 26.1 0
14:28 1022 30.18 851 25.13 11.7 53 34 -3.8 25.2 0
14:29 1022 30.18 851 25.13 11.7 53.1 34 -3.5 25.7 0
14:30 1022 30.18 851 25.13 11.7 53.1 37 -2.5 27.5 0
14:31 1022 30.18 851 25.13 11.8 53.3 32 -4.1 24.6 0
14:32 1022 30.18 851 25.13 11.7 53.1 35 -3.3 26.1 0
14:33 1022 30.18 851 25.13 11.8 53.2 33 -4 24.7 0
14:34 1022 30.18 851 25.13 11.8 53.2 33 -3.8 25.2 0
14:35 1022 30.18 851 25.13 11.9 53.5 32 -4.3 24.2 0
14:36 1022 30.18 851 25.13 12.1 53.8 33 -3.6 25.5 0
14:37 1022 30.18 851 25.13 12.3 54.1 33 -3.6 25.5 0
14:38 1022 30.18 851 25.13 12.4 54.4 31 -4 24.7 0
14:39 1022 30.18 851 25.13 12.6 54.6 32 -3.6 25.6 0
14:40 1022 30.18 851 25.13 12.5 54.6 32 -3.5 25.7 0
14:41 1022 30.18 851 25.13 12.4 54.4 30 -4.5 23.9 0
14:42 1022 30.18 851 25.13 12.4 54.3 31 -4.2 24.5 0
14:43 1022 30.18 851 25.13 12.4 54.2 31 -4.4 24 0
14:44 1022 30.18 851 25.13 12.3 54.2 32 -3.8 25.1 0
14:45 1022 30.18 851 25.13 12.3 54.2 32 -3.7 25.3 0
14:46 1022 30.18 851 25.13 12.4 54.4 31 -4.3 24.3 0
14:47 1022 30.18 851 25.13 12.4 54.3 32 -3.8 25.2 0
14:48 1022 30.18 851 25.13 12.4 54.3 30 -4.5 23.9 0
14:49 1022 30.18 851 25.13 12.3 54.2 31 -4.2 24.5 0
14:50 1022 30.18 851 25.13 12.4 54.3 32 -3.6 25.5 0
14:51 1022 30.18 851 25.13 12.5 54.5 33 -3.3 26.1 0
14:52 1022 30.18 851 25.13 12.5 54.6 31 -3.9 25 0
14:53 1022 30.18 851 25.13 12.6 54.7 30 -4.3 24.3 0
14:54 1022 30.18 851 25.13 12.7 54.8 30 -4.2 24.4 0
14:55 1021 30.15 851 25.13 12.7 54.9 31 -3.9 25 0
14:56 1022 30.18 851 25.13 12.7 54.9 31 -4 24.8 0
14:57 1022 30.18 851 25.13 12.8 55 31 -4 24.8 0
14:58 1022 30.18 851 25.13 12.8 55 31 -4 24.8 0
14:59 1022 30.18 851 25.13 12.7 54.9 31 -3.7 25.3 0
15:00 1022 30.18 851 25.13 12.8 55 31 -4.1 24.6 0
15:01 1022 30.18 851 25.13 12.9 55.2 30 -4.2 24.5 0
15:02 1022 30.18 851 25.13 13 55.4 30 -4 24.8 0
15:03 1022 30.18 851 25.13 13.3 55.9 30 -3.9 25 0
15:04 1022 30.18 851 25.13 13.4 56.1 30 -3.6 25.4 0
15:05 1021 30.15 851 25.13 13.4 56.1 31 -3.5 25.7 0
15:06 1021 30.15 851 25.13 13.3 56 29 -4.2 24.5 0
15:07 1021 30.15 851 25.13 13.2 55.8 29 -4.5 23.9 0
15:08 1021 30.15 851 25.13 13.2 55.7 31 -3.5 25.7 0
15:09 1021 30.15 851 25.13 13.3 55.9 29 -4.4 24.1 0
15:10 1021 30.15 851 25.13 13.2 55.7 30 -4.2 24.5 0
15:11 1021 30.15 851 25.13 13 55.4 30 -4.1 24.6 0
15:12 1021 30.15 851 25.13 12.9 55.2 30 -4.1 24.6 0
15:13 1021 30.15 851 25.13 12.8 55.1 29 -4.6 23.7 0
15:14 1021 30.15 851 25.13 13 55.4 30 -4.2 24.4 0
15:15 1021 30.15 851 25.13 13.1 55.7 30 -4.1 24.5 0
15:16 1021 30.15 851 25.13 13.2 55.7 29 -4.5 23.9 0
15:17 1021 30.15 851 25.13 13.1 55.5 30 -3.9 24.9 0
15:18 1021 30.15 851 25.13 12.9 55.3 29 -4.4 24.1 0
15:19 1021 30.15 851 25.13 12.9 55.3 30 -4.3 24.2 0
15:20 1021 30.15 851 25.13 13 55.4 30 -4.3 24.3 0
15:21 1021 30.15 851 25.13 13.1 55.5 29 -4.6 23.7 0
15:22 1021 30.15 851 25.13 13.1 55.7 30 -4.2 24.5 0
15:23 1021 30.15 851 25.13 13 55.4 31 -3.8 25.1 0
15:24 1021 30.15 851 25.13 12.8 55 31 -3.7 25.3 0
15:25 1021 30.15 851 25.13 12.6 54.7 32 -3.7 25.3 0
15:26 1021 30.15 851 25.13 12.6 54.6 30 -4.7 23.5 0
15:27 1021 30.15 851 25.13 12.7 54.8 31 -3.9 24.9 0
15:28 1021 30.15 851 25.13 12.8 55.1 33 -2.9 26.7 0
15:29 1021 30.15 851 25.13 12.8 55.1 32 -3.3 26 0
15:30 1021 30.15 851 25.13 12.9 55.1 30 -4.2 24.5 0
15:31 1021 30.15 851 25.13 12.7 54.9 31 -3.8 25.2 0
15:32 1021 30.15 851 25.13 12.6 54.7 31 -4.1 24.6 0
15:33 1021 30.15 851 25.13 12.4 54.4 31 -4.1 24.6 0
15:34 1021 30.15 851 25.13 12.4 54.2 33 -3.5 25.7 0
15:35 1021 30.15 851 25.13 12.4 54.3 33 -3.4 25.9 0
15:36 1021 30.15 851 25.13 12.6 54.6 33 -3.3 26 0
15:37 1021 30.15 851 25.13 12.7 54.9 33 -3 26.7 0
15:38 1021 30.15 851 25.13 12.7 54.9 30 -4.3 24.3 0
15:39 1021 30.15 851 25.13 12.7 54.8 31 -3.8 25.2 0
15:40 1021 30.15 851 25.13 12.6 54.8 31 -4.1 24.5 0
15:41 1021 30.15 851 25.13 12.6 54.6 32 -3.8 25.2 0
15:42 1021 30.15 851 25.13 12.5 54.5 35 -2.5 27.5 0
15:43 1021 30.15 851 25.13 12.5 54.6 32 -3.6 25.6 0
15:44 1021 30.15 851 25.13 12.5 54.5 32 -3.6 25.6 0
15:45 1022 30.18 851 25.13 12.5 54.6 35 -2.5 27.4 0
15:46 1021 30.15 851 25.13 12.5 54.6 33 -3.4 25.8 0
15:47 1021 30.15 851 25.13 12.6 54.6 32 -3.6 25.6 0
15:48 1021 30.15 851 25.13 12.7 54.8 32 -3.6 25.6 0
15:49 1021 30.15 851 25.13 12.8 55 33 -3.2 26.3 0
15:50 1021 30.15 851 25.13 12.9 55.2 32 -3.5 25.8 0
15:51 1021 30.15 851 25.13 13.1 55.6 33 -2.7 27.2 0
15:52 1021 30.15 851 25.13 13.2 55.8 32 -3.3 26.1 0
15:53 1021 30.15 851 25.13 13.2 55.8 32 -3.3 26.1 0
15:54 1021 30.15 851 25.13 13.2 55.8 36 -1.4 29.5 0
15:55 1021 30.15 851 25.13 13.2 55.8 31 -3.3 26 0
15:56 1021 30.15 851 25.13 13.2 55.8 32 -2.9 26.8 0
15:57 1021 30.15 851 25.13 13.2 55.7 32 -3.2 26.2 0
15:58 1021 30.15 851 25.13 13 55.5 34 -2.2 28 0
15:59 1021 30.15 851 25.13 12.9 55.3 33 -3 26.6 0
16:00 1021 30.15 851 25.13 12.9 55.1 33 -3 26.6 0
16:01 1021 30.15 851 25.13 12.8 55 32 -3.6 25.5 0
16:02 1021 30.15 851 25.13 12.7 54.8 33 -3.2 26.2 0
16:03 1021 30.15 851 25.13 12.6 54.7 33 -3.1 26.5 0
16:04 1021 30.15 851 25.13 12.6 54.6 33 -3.3 26.1 0
16:05 1021 30.15 851 25.13 12.5 54.5 32 -3.7 25.4 0
16:06 1021 30.15 851 25.13 12.4 54.3 33 -3.5 25.6 0
16:07 1021 30.15 851 25.13 12.3 54.2 32 -3.7 25.4 0
16:08 1021 30.15 851 25.13 12.3 54.1 36 -2.4 27.7 0
16:09 1021 30.15 851 25.13 12.3 54.1 33 -3.6 25.5 0
16:10 1021 30.15 851 25.13 12.3 54.1 33 -3.4 25.9 0
16:11 1021 30.15 851 25.13 12.2 54 33 -3.6 25.5 0
16:12 1021 30.15 851 25.13 12.2 54 33 -3.4 25.9 0
16:13 1021 30.15 851 25.13 12.2 53.9 33 -3.6 25.5 0
16:14 1021 30.15 851 25.13 12.2 53.9 33 -3.4 25.8 0
16:15 1021 30.15 851 25.13 12.2 53.9 36 -2.3 27.9 0
16:16 1021 30.15 851 25.13 12.1 53.8 33 -3.7 25.4 0
16:17 1021 30.15 851 25.13 12.1 53.8 33 -3.7 25.4 0
16:18 1021 30.15 851 25.13 12.1 53.7 34 -3.4 25.9 0
16:19 1021 30.15 851 25.13 12 53.7 35 -2.8 27 0
16:20 1021 30.15 851 25.13 12 53.6 37 -2.2 28 0
16:21 1021 30.15 851 25.13 11.9 53.5 38 -1.9 28.6 0
16:22 1021 30.15 851 25.13 11.9 53.4 39 -1.6 29.1 0
16:23 1021 30.15 851 25.13 11.9 53.4 38 -2 28.5 0
16:24 1021 30.15 851 25.13 11.9 53.3 41 -1.1 30.1 0
16:25 1021 30.15 851 25.13 11.8 53.2 37 -2.3 27.9 0
16:26 1021 30.15 851 25.13 11.8 53.2 39 -1.7 28.9 0
16:27 1021 30.15 851 25.13 11.7 53 40 -1.5 29.2 0
16:28 1021 30.15 851 25.13 11.7 53 40 -1.6 29.1 0
16:29 1021 30.15 851 25.13 11.6 52.9 40 -1.6 29.1 0
16:30 1021 30.15 851 25.13 11.6 52.8 41 -1.1 30.1 0
16:31 1021 30.15 851 25.13 11.6 52.8 41 -1.1 30.1 0
16:32 1021 30.15 851 25.13 11.6 52.8 41 -1.1 30 0
16:33 1021 30.15 851 25.13 11.5 52.7 39 -1.8 28.7 0
16:34 1021 30.15 851 25.13 11.5 52.7 42 -1 30.2 0
16:35 1021 30.15 851 25.13 11.5 52.6 40 -1.5 29.2 0
16:36 1021 30.15 850 25.1 11.5 52.7 42 -1 30.2 0
16:37 1021 30.15 850 25.1 11.5 52.6 41 -1.2 29.8 0
16:38 1021 30.15 850 25.1 11.5 52.6 41 -1.2 29.9 0
16:39 1021 30.15 850 25.1 11.4 52.6 43 -0.7 30.7 0
16:40 1021 30.15 850 25.1 11.4 52.5 44 -0.4 31.2 0
16:41 1021 30.15 850 25.1 11.4 52.5 42 -0.9 30.4 0
16:42 1021 30.15 850 25.1 11.4 52.5 42 -0.9 30.3 0
16:43 1021 30.15 850 25.1 11.4 52.5 42 -1 30.2 0
16:44 1021 30.15 850 25.1 11.4 52.5 42 -1 30.2 0
16:45 1021 30.15 850 25.1 11.4 52.6 41 -1.5 29.3 0
16:46 1021 30.15 850 25.1 11.4 52.6 41 -1.4 29.4 0
16:47 1021 30.15 850 25.1 11.4 52.6 41 -1.4 29.6 0
16:48 1021 30.15 850 25.1 11.4 52.6 40 -1.7 29 0
16:49 1021 30.15 850 25.1 11.5 52.6 40 -1.4 29.4 0
16:50 1021 30.15 850 25.1 11.4 52.5 42 -0.8 30.5 0
16:51 1021 30.15 850 25.1 11.4 52.5 43 -0.6 31 0
16:52 1021 30.15 850 25.1 11.3 52.3 47 0.5 33 0
16:53 1021 30.15 850 25.1 11.2 52.1 50 1.3 34.3 0
16:54 1021 30.15 850 25.1 11 51.9 51 1.5 34.6 0
16:55 1021 30.15 850 25.1 11 51.7 51 1.3 34.4 0
16:56 1021 30.15 850 25.1 10.8 51.5 52 1.4 34.5 0
16:57 1021 30.15 850 25.1 10.8 51.4 52 1.4 34.5 0
16:58 1021 30.15 850 25.1 10.7 51.2 52 1.3 34.3 0
16:59 1021 30.15 850 25.1 10.6 51.1 52 1.1 34 0
17:00 1021 30.15 850 25.1 10.6 51.1 51 1 33.8 0
17:01 1021 30.15 850 25.1 10.6 51 51 0.9 33.7 0
17:02 1021 30.15 850 25.1 10.5 51 51 0.9 33.6 0
17:03 1021 30.15 850 25.1 10.5 50.9 52 1 33.8 0
17:04 1021 30.15 850 25.1 10.5 50.9 51 0.8 33.4 0
17:05 1021 30.15 850 25.1 10.5 50.9 49 0.2 32.4 0
17:06 1021 30.15 850 25.1 10.6 51 46 -0.6 31 0
17:07 1021 30.15 850 25.1 10.6 51.1 45 -0.9 30.4 0
17:08 1021 30.15 850 25.1 10.6 51.1 45 -0.8 30.5 0
17:09 1021 30.15 850 25.1 10.7 51.2 44 -1 30.3 0
17:10 1021 30.15 850 25.1 10.7 51.2 44 -1.1 30.1 0
17:11 1021 30.15 850 25.1 10.7 51.3 45 -0.7 30.7 0
17:12 1021 30.15 850 25.1 10.8 51.4 43 -1.3 29.6 0
17:13 1021 30.15 850 25.1 10.8 51.4 42 -1.5 29.3 0
17:14 1021 30.15 850 25.1 10.8 51.5 44 -1 30.2 0
17:15 1021 30.15 850 25.1 10.8 51.4 44 -1.1 30.1 0
17:16 1021 30.15 850 25.1 10.8 51.5 44 -0.8 30.6 0
17:17 1021 30.15 850 25.1 10.8 51.4 49 0.5 33 0
17:18 1021 30.15 850 25.1 10.7 51.3 49 0.5 32.9 0
17:19 1021 30.15 850 25.1 10.6 51.2 47 -0 31.9 0
17:20 1021 30.15 850 25.1 10.6 51 48 0.1 32.1 0
17:21 1021 30.15 850 25.1 10.6 51 48 0.1 32.2 0
17:22 1021 30.15 850 25.1 10.5 50.9 49 0.2 32.4 0
17:23 1021 30.15 850 25.1 10.5 50.9 49 0.4 32.7 0
17:24 1021 30.15 850 25.1 10.5 50.8 49 0.3 32.5 0
17:25 1021 30.15 850 25.1 10.5 50.9 50 0.5 32.9 0
17:26 1021 30.15 850 25.1 10.5 50.8 50 0.6 33.1 0
17:27 1021 30.15 850 25.1 10.4 50.7 52 1 33.8 0
17:28 1021 30.15 850 25.1 10.3 50.5 53 1.2 34.1 0
17:29 1021 30.15 850 25.1 10.3 50.5 55 1.6 35 0
17:30 1021 30.15 850 25.1 10.2 50.4 55 1.7 35 0
17:31 1021 30.15 850 25.1 10.2 50.3 50 0.2 32.3 0
17:32 1021 30.15 850 25.1 10.2 50.3 45 -1.1 30 0
17:33 1021 30.15 850 25.1 10.2 50.4 45 -1.2 29.9 0
17:34 1021 30.15 850 25.1 10.3 50.5 44 -1.3 29.7 0
17:35 1021 30.15 850 25.1 10.3 50.6 44 -1.4 29.5 0
17:36 1021 30.15 850 25.1 10.4 50.6 44 -1.3 29.7 0
17:37 1021 30.15 850 25.1 10.4 50.7 43 -1.5 29.2 0
17:38 1021 30.15 850 25.1 10.4 50.8 44 -1.2 29.8 0
17:39 1021 30.15 850 25.1 10.4 50.8 51 0.9 33.6 0
17:40 1021 30.15 850 25.1 10.2 50.3 54 1.3 34.4 0
17:41 1021 30.15 850 25.1 9.7 49.5 53 0.7 33.2 0
17:42 1021 30.15 850 25.1 9.5 49.1 52 0.2 32.4 0
17:43 1021 30.15 850 25.1 9.4 48.9 52 0.2 32.3 0
17:44 1021 30.15 850 25.1 9.4 48.8 51 -0.1 31.8 0
17:45 1021 30.15 850 25.1 9.4 48.9 52 0 32.1 0
17:46 1021 30.15 850 25.1 9.3 48.8 49 -0.7 30.7 0
17:47 1021 30.15 850 25.1 9.5 49 50 -0.5 31.1 0
17:48 1021 30.15 850 25.1 9.5 49.1 51 -0.1 31.8 0
17:49 1021 30.15 850 25.1 9.4 48.8 54 0.6 33 0
17:50 1021 30.15 850 25.1 9 48.2 53 -0.1 31.8 0
17:51 1021 30.15 850 25.1 8.8 47.8 52 -0.5 31.1 0
17:52 1021 30.15 850 25.1 8.8 47.8 54 -0 32 0
17:53 1021 30.15 850 25.1 8.7 47.7 53 -0.4 31.2 0
17:54 1021 30.15 850 25.1 8.7 47.7 51 -0.7 30.7 0
17:55 1021 30.15 850 25.1 8.7 47.7 52 -0.6 30.9 0
17:56 1021 30.15 850 25.1 8.6 47.4 55 -0.1 31.9 0
17:57 1021 30.15 850 25.1 8.3 46.9 55 -0.2 31.7 0
17:58 1021 30.15 850 25.1 8 46.4 56 -0.2 31.6 0
17:59 1021 30.15 850 25.1 7.8 46.1 57 -0.2 31.7 0
18:00 1021 30.15 850 25.1 7.6 45.7 57 -0.3 31.5 0
18:01 1021 30.15 850 25.1 7.4 45.3 58 -0.3 31.5 0
18:02 1021 30.15 850 25.1 7.3 45.1 59 -0.3 31.5 0
18:03 1021 30.15 850 25.1 7.3 45.1 58 -0.5 31.1 0
18:04 1021 30.15 850 25.1 7.3 45.1 59 -0.2 31.6 0
18:05 1021 30.15 850 25.1 7.2 45 60 0.1 32.1 0
18:06 1021 30.15 850 25.1 7.1 44.8 61 0.2 32.3 0
18:07 1021 30.15 850 25.1 7 44.5 62 0.1 32.3 0
18:08 1021 30.15 850 25.1 7 44.6 61 -0.1 31.8 0
18:09 1021 30.15 850 25.1 7.1 44.9 61 0.2 32.4 0
18:10 1021 30.15 850 25.1 7 44.6 63 0.5 32.9 0
18:11 1021 30.15 850 25.1 6.7 44 65 0.6 33 0
18:12 1021 30.15 850 25.1 6.4 43.6 66 0.6 33 0
18:13 1021 30.15 850 25.1 6.3 43.3 67 0.5 33 0
18:14 1021 30.15 850 25.1 6.2 43.1 68 0.6 33.2 0
18:15 1021 30.15 850 25.1 6 42.8 68 0.6 33.2 0
18:16 1021 30.15 850 25.1 5.8 42.5 69 0.6 33 0
18:17 1021 30.15 850 25.1 5.8 42.4 69 0.5 32.8 0
18:18 1021 30.15 850 25.1 5.8 42.4 68 0.4 32.7 0
18:19 1021 30.15 850 25.1 5.7 42.3 69 0.5 32.8 0
18:20 1021 30.15 850 25.1 5.6 42.2 69 0.4 32.6 0
18:21 1021 30.15 850 25.1 5.7 42.3 68 0.3 32.6 0
18:22 1021 30.15 850 25.1 5.7 42.3 69 0.6 33 0
18:23 1021 30.15 851 25.13 5.4 41.8 70 0.5 32.9 0
18:24 1021 30.15 851 25.13 5.2 41.4 71 0.5 32.8 0
18:25 1021 30.15 851 25.13 5.2 41.3 72 0.5 32.9 0
18:26 1021 30.15 851 25.13 5.1 41.1 73 0.6 33 0
18:27 1021 30.15 851 25.13 5 41 72 0.5 32.8 0
18:28 1021 30.15 851 25.13 5 41 72 0.3 32.6 0
18:29 1021 30.15 851 25.13 5 41.1 72 0.5 32.8 0
18:30 1021 30.15 851 25.13 5 41.1 73 0.5 33 0
18:31 1021 30.15 850 25.1 5 41.1 73 0.5 33 0
18:32 1021 30.15 850 25.1 5.2 41.3 72 0.6 33 0
18:33 1021 30.15 851 25.13 5.4 41.7 72 0.7 33.2 0
18:34 1021 30.15 850 25.1 5.5 41.9 71 0.7 33.2 0
18:35 1021 30.15 851 25.13 5.7 42.2 71 0.8 33.4 0
18:36 1021 30.15 851 25.13 5.8 42.4 70 0.8 33.4 0
18:37 1021 30.15 851 25.13 5.9 42.6 70 0.9 33.5 0
18:38 1021 30.15 851 25.13 5.9 42.5 70 0.9 33.5 0
18:39 1021 30.15 851 25.13 5.9 42.6 71 1 33.8 0
18:40 1021 30.15 851 25.13 5.8 42.5 71 1 33.9 0
18:41 1021 30.15 851 25.13 5.7 42.2 72 1.1 33.9 0
18:42 1021 30.15 851 25.13 5.6 42 73 1.1 34 0
18:43 1021 30.15 851 25.13 5.5 41.9 73 1.1 34 0
18:44 1021 30.15 851 25.13 5.4 41.8 74 1.2 34.2 0
18:45 1021 30.15 851 25.13 5.4 41.6 75 1.2 34.2 0
18:46 1021 30.15 851 25.13 5.3 41.6 75 1.2 34.2 0
18:47 1021 30.15 851 25.13 5.3 41.6 75 1.2 34.2 0
18:48 1021 30.15 851 25.13 5.3 41.6 75 1.3 34.3 0
18:49 1021 30.15 851 25.13 5.3 41.6 75 1.4 34.4 0
18:50 1021 30.15 851 25.13 5.4 41.7 75 1.3 34.4 0
18:51 1021 30.15 851 25.13 5.5 41.8 75 1.4 34.5 0
18:52 1021 30.15 851 25.13 5.5 41.9 75 1.4 34.6 0
18:53 1021 30.15 851 25.13 5.6 42 75 1.5 34.7 0
18:54 1021 30.15 851 25.13 5.5 42 75 1.4 34.6 0
18:55 1021 30.15 851 25.13 5.6 42.1 75 1.5 34.7 0
18:56 1021 30.15 851 25.13 5.7 42.2 75 1.6 34.8 0
18:57 1021 30.15 851 25.13 5.7 42.2 76 1.8 35.3 0
18:58 1021 30.15 851 25.13 5.7 42.3 76 1.8 35.3 0
18:59 1021 30.15 851 25.13 5.8 42.4 76 1.9 35.4 0
19:00 1021 30.15 851 25.13 5.7 42.3 76 1.9 35.4 0
19:01 1021 30.15 851 25.13 5.7 42.3 76 1.9 35.4 0
19:02 1021 30.15 850 25.1 5.7 42.3 76 1.8 35.3 0
19:03 1021 30.15 850 25.1 5.8 42.4 76 1.8 35.3 0
19:04 1021 30.15 850 25.1 5.8 42.4 76 1.9 35.4 0
19:05 1021 30.15 850 25.1 5.7 42.3 76 1.8 35.3 0
19:06 1021 30.15 850 25.1 5.7 42.2 76 1.7 35.1 0
19:07 1021 30.15 850 25.1 5.7 42.2 75 1.7 35 0
19:08 1021 30.15 850 25.1 5.6 42.1 76 1.6 35 0
19:09 1021 30.15 850 25.1 5.6 42.1 76 1.8 35.2 0
19:10 1021 30.15 850 25.1 5.6 42 77 1.8 35.2 0
19:11 1021 30.15 851 25.13 5.5 41.8 77 1.8 35.2 0
19:12 1021 30.15 851 25.13 5.4 41.7 77 1.8 35.2 0
19:13 1021 30.15 850 25.1 5.3 41.5 77 1.7 35 0
19:14 1021 30.15 851 25.13 5.2 41.3 78 1.6 34.8 0
19:15 1021 30.15 850 25.1 5.1 41.3 77 1.5 34.7 0
19:16 1021 30.15 850 25.1 5.1 41.1 77 1.4 34.6 0
19:17 1021 30.15 851 25.13 5 40.9 77 1.4 34.4 0
19:18 1021 30.15 851 25.13 5 41 77 1.2 34.2 0
19:19 1021 30.15 851 25.13 5.1 41.2 75 1.1 33.9 0
19:20 1021 30.15 851 25.13 5.2 41.4 74 1.1 33.9 0
19:21 1021 30.15 851 25.13 5.3 41.5 74 1.1 34 0
19:22 1021 30.15 851 25.13 5.1 41.2 75 1 33.8 0
19:23 1021 30.15 851 25.13 5.2 41.3 74 1 33.7 0
19:24 1021 30.15 851 25.13 5.3 41.6 74 1 33.8 0
19:25 1021 30.15 851 25.13 5.4 41.7 73 1 33.8 0
19:26 1021 30.15 851 25.13 5.5 41.9 72 0.9 33.7 0
19:27 1021 30.15 851 25.13 5.6 42.1 71 0.8 33.5 0
19:28 1021 30.15 851 25.13 5.7 42.3 71 0.9 33.6 0
19:29 1021 30.15 851 25.13 5.8 42.5 70 0.9 33.6 0
19:30 1021 30.15 851 25.13 5.9 42.6 70 0.9 33.6 0
19:31 1021 30.15 850 25.1 5.9 42.7 70 0.9 33.6 0
19:32 1021 30.15 851 25.13 5.9 42.6 70 0.9 33.6 0
19:33 1021 30.15 851 25.13 5.9 42.7 70 0.8 33.5 0
19:34 1021 30.15 851 25.13 6 42.8 69 0.8 33.5 0
19:35 1021 30.15 851 25.13 6.1 43 69 0.8 33.5 0
19:36 1021 30.15 851 25.13 6.2 43.1 68 0.8 33.4 0
19:37 1021 30.15 851 25.13 6.2 43.2 68 0.8 33.4 0
19:38 1021 30.15 851 25.13 6.1 43 68 0.7 33.3 0
19:39 1021 30.15 851 25.13 6.1 43.1 69 0.9 33.5 0
19:40 1021 30.15 851 25.13 6.1 42.9 69 0.8 33.4 0
19:41 1021 30.15 851 25.13 5.9 42.7 69 0.7 33.3 0
19:42 1021 30.15 851 25.13 5.8 42.5 69 0.6 33.1 0
19:43 1021 30.15 851 25.13 5.8 42.4 69 0.6 33 0
19:44 1022 30.18 851 25.13 5.7 42.2 70 0.6 33.1 0
19:45 1022 30.18 851 25.13 5.6 42 70 0.6 33 0
19:46 1022 30.18 851 25.13 5.4 41.8 71 0.6 33.1 0
19:47 1022 30.18 851 25.13 5.4 41.8 71 0.6 33.1 0
19:48 1022 30.18 851 25.13 5.4 41.8 71 0.5 33 0
19:49 1022 30.18 851 25.13 5.4 41.8 69 0.1 32.2 0
19:50 1022 30.18 851 25.13 5.3 41.5 70 0.2 32.3 0
19:51 1022 30.18 851 25.13 5 41 71 0.1 32.2 0
19:52 1022 30.18 851 25.13 4.8 40.7 71 -0.1 31.9 0
19:53 1022 30.18 851 25.13 4.7 40.4 71 -0.2 31.6 0
19:54 1022 30.18 851 25.13 4.7 40.5 70 -0.4 31.4 0
19:55 1022 30.18 851 25.13 4.8 40.6 69 -0.5 31.1 0
19:56 1022 30.18 851 25.13 5 41 68 -0.3 31.4 0
19:57 1022 30.18 851 25.13 5 41.1 68 -0.4 31.3 0
19:58 1022 30.18 851 25.13 5 41 68 -0.4 31.2 0
19:59 1022 30.18 851 25.13 5 41 68 -0.3 31.4 0
20:00 1022 30.18 851 25.13 5 40.9 69 -0.3 31.5 0
20:01 1022 30.18 851 25.13 4.9 40.8 69 -0.3 31.5 0
20:02 1022 30.18 851 25.13 4.9 40.8 70 -0.2 31.7 0
20:03 1022 30.18 851 25.13 4.7 40.5 70 -0.3 31.4 0
20:04 1022 30.18 851 25.13 4.5 40.1 70 -0.5 31.2 0
20:05 1022 30.18 851 25.13 4.3 39.7 70 -0.7 30.7 0
20:06 1022 30.18 851 25.13 4 39.2 71 -0.8 30.5 0
20:07 1022 30.18 851 25.13 3.8 38.8 72 -0.8 30.5 0
20:08 1022 30.18 851 25.13 3.7 38.7 72 -0.9 30.4 0
20:09 1022 30.18 851 25.13 3.8 38.8 72 -0.8 30.6 0
20:10 1022 30.18 851 25.13 3.9 39.1 71 -0.8 30.6 0
20:11 1022 30.18 851 25.13 3.9 39 72 -0.7 30.8 0
20:12 1022 30.18 851 25.13 3.8 38.9 72 -0.8 30.6 0
20:13 1022 30.18 851 25.13 3.7 38.7 72 -0.8 30.5 0
20:14 1022 30.18 851 25.13 3.5 38.2 74 -0.8 30.5 0
20:15 1022 30.18 851 25.13 3.1 37.6 76 -0.8 30.6 0
20:16 1022 30.18 851 25.13 3 37.5 76 -0.8 30.6 0
20:17 1022 30.18 851 25.13 3.1 37.6 76 -0.7 30.7 0
20:18 1022 30.18 851 25.13 3.2 37.8 76 -0.6 30.9 0
20:19 1022 30.18 851 25.13 3.2 37.8 76 -0.6 31 0
20:20 1022 30.18 851 25.13 3 37.5 78 -0.5 31.2 0
20:21 1022 30.18 851 25.13 2.9 37.2 78 -0.5 31.1 0
20:22 1022 30.18 851 25.13 3 37.4 78 -0.5 31.1 0
20:23 1022 30.18 851 25.13 3.1 37.5 77 -0.5 31 0
20:24 1022 30.18 851 25.13 3 37.3 78 -0.4 31.2 0
20:25 1022 30.18 851 25.13 2.8 37 80 -0.4 31.3 0
20:26 1022 30.18 851 25.13 2.5 36.6 81 -0.4 31.2 0
20:27 1022 30.18 851 25.13 2.4 36.3 82 -0.4 31.3 0
20:28 1022 30.18 851 25.13 2.5 36.4 82 -0.3 31.4 0
20:29 1022 30.18 851 25.13 2.7 36.9 81 -0.2 31.6 0
20:30 1022 30.18 852 25.16 2.9 37.3 79 -0.4 31.3 0
20:31 1022 30.18 852 25.16 3.2 37.7 77 -0.5 31.1 0
20:32 1023 30.21 852 25.16 3.6 38.4 75 -0.4 31.3 0
20:33 1023 30.21 852 25.16 3.9 39.1 74 -0.2 31.6 0
20:34 1023 30.21 852 25.16 4.2 39.6 74 -0 32 0
20:35 1023 30.21 852 25.16 4.3 39.7 74 -0 32 0
20:36 1023 30.21 852 25.16 4.3 39.8 73 -0.1 31.8 0
20:37 1023 30.21 852 25.16 4.5 40.1 72 -0.1 31.7 0
20:38 1023 30.21 852 25.16 4.6 40.3 70 -0.3 31.4 0
20:39 1023 30.21 852 25.16 4.9 40.8 69 -0.2 31.6 0
20:40 1023 30.21 852 25.16 5 41 71 0.1 32.2 0
20:41 1023 30.21 852 25.16 4.9 40.9 71 0.1 32.2 0
20:42 1023 30.21 852 25.16 4.8 40.7 72 0.2 32.4 0
20:43 1023 30.21 852 25.16 4.7 40.4 73 0.2 32.3 0
20:44 1023 30.21 852 25.16 4.6 40.2 72 -0.1 31.8 0
20:45 1023 30.21 852 25.16 4.7 40.5 70 -0.3 31.4 0
20:46 1023 30.21 852 25.16 4.9 40.8 69 -0.3 31.5 0
20:47 1023 30.21 852 25.16 4.9 40.9 69 -0.2 31.6 0
20:48 1023 30.21 852 25.16 4.9 40.8 69 -0.3 31.5 0
20:49 1023 30.21 852 25.16 4.9 40.7 69 -0.3 31.5 0
20:50 1023 30.21 852 25.16 4.8 40.6 69 -0.4 31.3 0
20:51 1023 30.21 852 25.16 4.8 40.7 68 -0.6 31 0
20:52 1023 30.21 852 25.16 5 41 67 -0.7 30.7 0
20:53 1023 30.21 852 25.16 5.2 41.3 68 -0.3 31.5 0
20:54 1023 30.21 852 25.16 5 41 69 -0.1 31.8 0
20:55 1023 30.21 852 25.16 4.6 40.3 71 -0.2 31.7 0
20:56 1023 30.21 852 25.16 4.4 40 71 -0.3 31.5 0
20:57 1023 30.21 852 25.16 4.4 39.9 72 -0.2 31.6 0
20:58 1023 30.21 852 25.16 4.3 39.8 73 -0.2 31.7 0
20:59 1023 30.21 852 25.16 4.3 39.8 72 -0.3 31.5 0
21:00 1023 30.21 852 25.16 4.4 39.9 71 -0.3 31.4 0
21:01 1023 30.21 852 25.16 4.5 40.2 69 -0.6 31 0
21:02 1023 30.21 852 25.16 4.8 40.7 69 -0.4 31.4 0
21:03 1023 30.21 852 25.16 4.9 40.7 70 -0.2 31.6 0
21:04 1023 30.21 852 25.16 4.7 40.5 70 -0.3 31.5 0
21:05 1023 30.21 852 25.16 4.7 40.5 70 -0.3 31.4 0
21:06 1023 30.21 852 25.16 4.5 40.2 71 -0.3 31.5 0
21:07 1023 30.21 852 25.16 4.2 39.6 72 -0.4 31.3 0
21:08 1023 30.21 852 25.16 4 39.2 73 -0.4 31.3 0
21:09 1023 30.21 852 25.16 3.8 38.8 74 -0.4 31.3 0
21:10 1023 30.21 852 25.16 3.7 38.6 74 -0.5 31.1 0
21:11 1023 30.21 852 25.16 3.8 38.8 74 -0.5 31.1 0
21:12 1023 30.21 852 25.16 3.9 39 73 -0.6 31 0
21:13 1023 30.21 852 25.16 3.8 38.8 73 -0.6 31 0
21:14 1023 30.21 852 25.16 3.6 38.4 74 -0.6 31 0
21:15 1023 30.21 852 25.16 3.5 38.2 75 -0.6 30.9 0
21:16 1023 30.21 852 25.16 3.5 38.3 74 -0.6 30.8 0
21:17 1023 30.21 852 25.16 3.5 38.4 74 -0.6 30.9 0
21:18 1023 30.21 852 25.16 3.5 38.2 74 -0.7 30.8 0
21:19 1023 30.21 852 25.16 3.4 38.1 74 -0.7 30.7 0
21:20 1023 30.21 852 25.16 3.5 38.3 74 -0.8 30.6 0
21:21 1023 30.21 852 25.16 3.5 38.3 74 -0.7 30.8 0
21:22 1023 30.21 852 25.16 3.4 38.1 74 -0.8 30.5 0
21:23 1023 30.21 852 25.16 3.2 37.8 75 -0.8 30.5 0
21:24 1023 30.21 852 25.16 3.1 37.7 75 -0.8 30.5 0
21:25 1023 30.21 852 25.16 2.8 37.1 76 -0.9 30.3 0
21:26 1023 30.21 852 25.16 2.7 36.8 77 -1.1 30.1 0
21:27 1023 30.21 852 25.16 2.6 36.7 76 -1.1 30 0
21:28 1023 30.21 852 25.16 2.5 36.6 77 -1.1 30.1 0
21:29 1023 30.21 853 25.19 2.5 36.5 77 -1.1 30.1 0
21:30 1023 30.21 853 25.19 2.6 36.6 77 -1 30.2 0
21:31 1023 30.21 853 25.19 2.7 36.8 77 -1 30.3 0
21:32 1023 30.21 853 25.19 2.8 37 76 -1 30.2 0
21:33 1023 30.21 853 25.19 2.9 37.2 75 -1 30.2 0
21:34 1023 30.21 852 25.16 3 37.5 74 -1.1 30 0
21:35 1023 30.21 852 25.16 3.2 37.7 73 -1.2 29.9 0
21:36 1023 30.21 852 25.16 3.2 37.8 72 -1.3 29.7 0
21:37 1023 30.21 852 25.16 3.2 37.7 72 -1.3 29.6 0
21:38 1023 30.21 852 25.16 3.2 37.7 72 -1.3 29.6 0
21:39 1023 30.21 852 25.16 3.2 37.7 72 -1.4 29.6 0
21:40 1023 30.21 852 25.16 3.1 37.6 72 -1.4 29.6 0
21:41 1023 30.21 852 25.16 3.1 37.5 72 -1.4 29.5 0
21:42 1023 30.21 853 25.19 3.1 37.5 72 -1.4 29.4 0
21:43 1023 30.21 853 25.19 3 37.4 73 -1.5 29.4 0
21:44 1023 30.21 853 25.19 3 37.4 73 -1.5 29.4 0
21:45 1023 30.21 853 25.19 3 37.4 73 -1.4 29.4 0
21:46 1023 30.21 853 25.19 3 37.4 73 -1.4 29.5 0
21:47 1023 30.21 853 25.19 2.8 37.1 74 -1.4 29.5 0
21:48 1023 30.21 853 25.19 2.6 36.7 75 -1.5 29.4 0
21:49 1023 30.21 853 25.19 2.4 36.3 76 -1.5 29.3 0
21:50 1023 30.21 853 25.19 2.1 35.8 76 -1.6 29.1 0
21:51 1023 30.21 853 25.19 2 35.5 77 -1.7 29 0
21:52 1023 30.21 853 25.19 1.8 35.3 77 -1.7 28.9 0
21:53 1023 30.21 853 25.19 1.7 35.1 78 -1.7 28.9 0
21:54 1024 30.24 853 25.19 1.6 34.9 78 -1.8 28.8 0
21:55 1024 30.24 853 25.19 1.6 34.8 79 -1.8 28.8 0
21:56 1024 30.24 853 25.19 1.4 34.6 79 -1.8 28.7 0
21:57 1024 30.24 853 25.19 1.4 34.5 79 -1.8 28.7 0
21:58 1024 30.24 853 25.19 1.3 34.4 80 -1.8 28.7 0
21:59 1024 30.24 853 25.19 1.3 34.3 79 -1.9 28.6 0
22:00 1024 30.24 853 25.19 1.2 34.1 80 -1.9 28.6 0
22:01 1024 30.24 853 25.19 1.1 34.1 81 -1.8 28.7 0
22:02 1024 30.24 853 25.19 1.2 34.1 81 -1.8 28.7 0
22:03 1024 30.24 853 25.19 1.3 34.3 80 -1.8 28.8 0
22:04 1024 30.24 853 25.19 1.3 34.4 80 -1.7 28.9 0
22:05 1024 30.24 853 25.19 1.4 34.5 80 -1.7 29 0
22:06 1024 30.24 853 25.19 1.6 34.9 80 -1.6 29.2 0
22:07 1024 30.24 853 25.19 1.8 35.2 79 -1.5 29.2 0
22:08 1024 30.24 853 25.19 2 35.5 78 -1.5 29.4 0
22:09 1024 30.24 853 25.19 2.2 35.9 77 -1.4 29.4 0
22:10 1024 30.24 853 25.19 2.4 36.2 77 -1.3 29.6 0
22:11 1024 30.24 853 25.19 2.5 36.5 76 -1.3 29.6 0
22:12 1024 30.24 853 25.19 2.7 36.9 75 -1.2 29.8 0
22:13 1024 30.24 853 25.19 2.9 37.2 74 -1.2 29.8 0
22:14 1024 30.24 853 25.19 3.1 37.5 73 -1.2 29.8 0
22:15 1024 30.24 853 25.19 3.2 37.8 73 -1.2 29.8 0
22:16 1024 30.24 853 25.19 3.4 38.1 72 -1.2 29.9 0
22:17 1024 30.24 853 25.19 3.5 38.3 71 -1.2 29.9 0
22:18 1024 30.24 853 25.19 3.6 38.5 72 -1 30.3 0
22:19 1024 30.24 853 25.19 3.6 38.4 72 -1 30.1 0
22:20 1024 30.24 853 25.19 3.6 38.4 72 -1 30.2 0
22:21 1024 30.24 853 25.19 3.6 38.5 72 -1.1 30.1 0
22:22 1024 30.24 853 25.19 3.7 38.6 70 -1.2 29.8 0
22:23 1024 30.24 853 25.19 3.7 38.7 71 -1.1 30 0
22:24 1024 30.24 853 25.19 3.7 38.7 70 -1.1 29.9 0
22:25 1024 30.24 853 25.19 3.7 38.7 70 -1.2 29.8 0
22:26 1024 30.24 853 25.19 3.8 38.8 70 -1.2 29.9 0
22:27 1024 30.24 853 25.19 3.8 38.8 70 -1.3 29.7 0
22:28 1024 30.24 853 25.19 3.8 38.9 69 -1.3 29.6 0
22:29 1024 30.24 853 25.19 3.8 38.9 70 -1.2 29.9 0
22:30 1024 30.24 853 25.19 3.7 38.7 71 -1.1 30 0
22:31 1024 30.24 853 25.19 3.6 38.6 71 -1.2 29.9 0
22:32 1024 30.24 853 25.19 3.7 38.6 70 -1.3 29.7 0
22:33 1024 30.24 853 25.19 3.6 38.5 71 -1.2 29.9 0
22:34 1024 30.24 853 25.19 3.6 38.4 71 -1.2 29.8 0
22:35 1024 30.24 853 25.19 3.4 38.1 71 -1.3 29.7 0
22:36 1024 30.24 853 25.19 3.3 38 71 -1.4 29.5 0
22:37 1024 30.24 853 25.19 3.3 38 71 -1.4 29.5 0
22:38 1024 30.24 853 25.19 3.3 38 71 -1.4 29.5 0
22:39 1024 30.24 853 25.19 3.2 37.8 71 -1.4 29.4 0
22:40 1024 30.24 853 25.19 3.1 37.6 72 -1.5 29.3 0
22:41 1024 30.24 853 25.19 3 37.4 72 -1.5 29.4 0
22:42 1024 30.24 853 25.19 3 37.3 73 -1.5 29.4 0
22:43 1024 30.24 853 25.19 2.9 37.2 73 -1.5 29.3 0
22:44 1024 30.24 853 25.19 2.9 37.2 73 -1.5 29.2 0
22:45 1024 30.24 853 25.19 2.9 37.2 72 -1.6 29.2 0
22:46 1024 30.24 853 25.19 3 37.3 72 -1.6 29.1 0
22:47 1024 30.24 853 25.19 3.1 37.5 71 -1.6 29 0
22:48 1024 30.24 853 25.19 3.3 37.9 70 -1.6 29.1 0
22:49 1024 30.24 853 25.19 3.4 38.1 70 -1.6 29.1 0
22:50 1024 30.24 853 25.19 3.5 38.3 69 -1.6 29.1 0
22:51 1024 30.24 853 25.19 3.6 38.5 69 -1.5 29.3 0
22:52 1024 30.24 853 25.19 3.5 38.4 69 -1.5 29.3 0
22:53 1024 30.24 853 25.19 3.5 38.4 69 -1.5 29.2 0
22:54 1024 30.24 853 25.19 3.6 38.4 69 -1.5 29.2 0
22:55 1024 30.24 853 25.19 3.5 38.3 70 -1.5 29.2 0
22:56 1024 30.24 853 25.19 3.4 38.1 70 -1.6 29.1 0
22:57 1024 30.24 853 25.19 3.3 37.9 70 -1.6 29 0
22:58 1024 30.24 853 25.19 3.1 37.7 70 -1.7 28.9 0
22:59 1024 30.24 853 25.19 3 37.5 71 -1.8 28.8 0
23:00 1024 30.24 853 25.19 3 37.3 71 -1.8 28.8 0
23:01 1024 30.24 853 25.19 2.8 37 71 -1.9 28.6 0
23:02 1024 30.24 853 25.19 2.7 36.8 72 -1.9 28.6 0
23:03 1024 30.24 853 25.19 2.5 36.5 73 -1.9 28.6 0
23:04 1024 30.24 853 25.19 2.3 36.2 73 -1.9 28.5 0
23:05 1024 30.24 853 25.19 2.3 36.1 74 -2 28.5 0
23:06 1024 30.24 853 25.19 2.2 36 74 -2 28.4 0
23:07 1024 30.24 853 25.19 2.4 36.2 73 -2 28.4 0
23:08 1024 30.24 853 25.19 2.4 36.4 73 -2 28.4 0
23:09 1024 30.24 853 25.19 2.5 36.4 72 -2 28.3 0
23:10 1024 30.24 853 25.19 2.4 36.3 73 -2 28.3 0
23:11 1024 30.24 853 25.19 2.4 36.2 73 -2 28.4 0
23:12 1024 30.24 853 25.19 2.3 36.1 73 -2 28.4 0
23:13 1024 30.24 853 25.19 2.4 36.3 73 -2 28.3 0
23:14 1024 30.24 853 25.19 2.5 36.5 72 -2.1 28.2 0
23:15 1024 30.24 853 25.19 2.6 36.7 71 -2.1 28.3 0
23:16 1024 30.24 853 25.19 2.7 36.8 71 -2.1 28.2 0
23:17 1024 30.24 853 25.19 2.7 36.9 70 -2.1 28.2 0
23:18 1024 30.24 853 25.19 2.8 37 70 -2.1 28.2 0
23:19 1024 30.24 853 25.19 2.8 37 70 -2.2 28.1 0
23:20 1024 30.24 853 25.19 2.7 36.9 70 -2.2 28 0
23:21 1024 30.24 853 25.19 2.7 36.8 70 -2.2 28 0
23:22 1024 30.24 853 25.19 2.6 36.8 70 -2.3 27.9 0
23:23 1024 30.24 853 25.19 2.7 36.8 70 -2.3 27.9 0
23:24 1024 30.24 853 25.19 2.7 36.9 69 -2.3 27.8 0
23:25 1024 30.24 853 25.19 2.7 36.8 70 -2.3 27.8 0
23:26 1024 30.24 853 25.19 2.6 36.6 70 -2.3 27.8 0
23:27 1024 30.24 853 25.19 2.5 36.5 70 -2.4 27.6 0
23:28 1024 30.24 853 25.19 2.6 36.6 70 -2.4 27.6 0
23:29 1024 30.24 853 25.19 2.6 36.7 69 -2.4 27.6 0
23:30 1024 30.24 853 25.19 2.6 36.6 70 -2.5 27.6 0
23:31 1024 30.24 853 25.19 2.5 36.6 70 -2.4 27.6 0
23:32 1024 30.24 853 25.19 2.5 36.5 70 -2.5 27.5 0
23:33 1024 30.24 853 25.19 2.6 36.6 69 -2.5 27.6 0
23:34 1024 30.24 853 25.19 2.5 36.5 70 -2.4 27.6 0
23:35 1024 30.24 853 25.19 2.5 36.6 70 -2.4 27.6 0
23:36 1024 30.24 853 25.19 2.6 36.6 69 -2.5 27.5 0
23:37 1024 30.24 853 25.19 2.7 36.8 69 -2.4 27.6 0
23:38 1024 30.24 853 25.19 2.6 36.6 69 -2.5 27.6 0
23:39 1024 30.24 853 25.19 2.6 36.6 69 -2.5 27.6 0
23:40 1024 30.24 853 25.19 2.5 36.6 69 -2.5 27.5 0
23:41 1024 30.24 853 25.19 2.6 36.6 69 -2.5 27.5 0
23:42 1024 30.24 853 25.19 2.6 36.7 69 -2.4 27.6 0
23:43 1024 30.24 853 25.19 2.6 36.7 70 -2.4 27.7 0
23:44 1024 30.24 853 25.19 2.5 36.6 70 -2.4 27.7 0
23:45 1024 30.24 853 25.19 2.4 36.3 70 -2.5 27.5 0
23:46 1024 30.24 853 25.19 2.3 36.1 71 -2.5 27.5 0
23:47 1024 30.24 853 25.19 2.1 35.7 72 -2.5 27.5 0
23:48 1024 30.24 853 25.19 1.9 35.4 72 -2.6 27.3 0
23:49 1024 30.24 853 25.19 1.9 35.5 72 -2.6 27.4 0
23:50 1024 30.24 853 25.19 1.9 35.5 72 -2.6 27.4 0
23:51 1024 30.24 853 25.19 2 35.7 72 -2.6 27.4 0
23:52 1024 30.24 853 25.19 2.1 35.8 71 -2.6 27.4 0
23:53 1024 30.24 853 25.19 2.1 35.8 71 -2.5 27.4 0
23:54 1024 30.24 853 25.19 2.1 35.8 72 -2.5 27.5 0
23:55 1024 30.24 853 25.19 2 35.6 72 -2.5 27.5 0
23:56 1024 30.24 853 25.19 1.9 35.5 72 -2.5 27.4 0
23:57 1024 30.24 853 25.19 1.9 35.4 72 -2.6 27.4 0
23:58 1024 30.24 853 25.19 1.9 35.3 72 -2.6 27.4 0
23:59 1024 30.24 853 25.19 1.8 35.2 73 -2.6 27.3 0
24:00 1024 30.24 853 25.19 1.8 35.2 73 -2.6 27.3 0